<?xml version="1.0" encoding="UTF-8" standalone="no" ?>
<gpx xmlns="http://www.topografix.com/GPX/1/1" xmlns:xsi="http://www.w3.org/2001/XMLSchema-instance" xsi:schemaLocation="http://www.topografix.com/GPX/1/1 http://www.topografix.com/GPX/1/1/gpx.xsd" version="1.1" creator="VisuGPX - https://www.visugpx.com">
  <metadata>
    <name>St Caprais Lagravette 8.5 km</name>
  </metadata>
  <trk>
    <name><![CDATA[2022 11 19 St Caprais de Lerm Pierre]]></name>
    <extensions>
      <line xmlns="http://www.topografix.com/GPX/gpx_style/0/2">
        <color>0000FF</color>
        <opacity>1</opacity>
        <width>4</width>
      </line>
    </extensions>
    <trkseg>
      <trkpt lat="44.21256" lon="0.744">
        <ele>89.9</ele>
      </trkpt>
      <trkpt lat="44.21272" lon="0.74379">
        <ele>91.1</ele>
        <time>2022-11-19T13:07:12.310Z</time>
      </trkpt>
      <trkpt lat="44.21273" lon="0.74373">
        <ele>91.3</ele>
        <time>2022-11-19T13:07:20.310Z</time>
      </trkpt>
      <trkpt lat="44.2127" lon="0.74362">
        <ele>91.4</ele>
        <time>2022-11-19T13:07:26.310Z</time>
      </trkpt>
      <trkpt lat="44.2127" lon="0.7436">
        <ele>91.5</ele>
        <time>2022-11-19T13:07:28.310Z</time>
      </trkpt>
      <trkpt lat="44.21273" lon="0.74355">
        <ele>92.1</ele>
        <time>2022-11-19T13:07:32.310Z</time>
      </trkpt>
      <trkpt lat="44.21276" lon="0.74344">
        <ele>93</ele>
        <time>2022-11-19T13:07:40.310Z</time>
      </trkpt>
      <trkpt lat="44.2128" lon="0.74338">
        <ele>93.9</ele>
        <time>2022-11-19T13:08:19.237Z</time>
      </trkpt>
      <trkpt lat="44.21295" lon="0.74331">
        <ele>95.4</ele>
        <time>2022-11-19T13:10:50.639Z</time>
      </trkpt>
      <trkpt lat="44.21297" lon="0.74331">
        <ele>95.6</ele>
        <time>2022-11-19T13:10:52.639Z</time>
      </trkpt>
      <trkpt lat="44.21299" lon="0.7433">
        <ele>95.7</ele>
        <time>2022-11-19T13:10:54.639Z</time>
      </trkpt>
      <trkpt lat="44.21299" lon="0.74319">
        <ele>96.6</ele>
        <time>2022-11-19T13:11:02.639Z</time>
      </trkpt>
      <trkpt lat="44.21304" lon="0.74294">
        <ele>98.6</ele>
        <time>2022-11-19T13:11:18.639Z</time>
      </trkpt>
      <trkpt lat="44.21303" lon="0.74288">
        <ele>99</ele>
        <time>2022-11-19T13:11:22.639Z</time>
      </trkpt>
      <trkpt lat="44.21305" lon="0.74276">
        <ele>99.8</ele>
        <time>2022-11-19T13:11:30.639Z</time>
      </trkpt>
      <trkpt lat="44.2131" lon="0.74265">
        <ele>100.2</ele>
        <time>2022-11-19T13:11:38.639Z</time>
      </trkpt>
      <trkpt lat="44.21324" lon="0.74248">
        <ele>101.5</ele>
        <time>2022-11-19T13:11:54.639Z</time>
      </trkpt>
      <trkpt lat="44.21328" lon="0.74247">
        <ele>101.9</ele>
        <time>2022-11-19T13:11:58.639Z</time>
      </trkpt>
      <trkpt lat="44.21339" lon="0.74247">
        <ele>103.3</ele>
        <time>2022-11-19T13:12:08.639Z</time>
      </trkpt>
      <trkpt lat="44.21344" lon="0.7425">
        <ele>104.1</ele>
        <time>2022-11-19T13:12:12.639Z</time>
      </trkpt>
      <trkpt lat="44.21348" lon="0.74251">
        <ele>104.7</ele>
        <time>2022-11-19T13:12:16.639Z</time>
      </trkpt>
      <trkpt lat="44.2135" lon="0.74249">
        <ele>104.7</ele>
        <time>2022-11-19T13:12:18.639Z</time>
      </trkpt>
      <trkpt lat="44.21379" lon="0.74252">
        <ele>108.1</ele>
        <time>2022-11-19T13:12:42.639Z</time>
      </trkpt>
      <trkpt lat="44.21396" lon="0.74256">
        <ele>110.1</ele>
        <time>2022-11-19T13:12:58.639Z</time>
      </trkpt>
      <trkpt lat="44.21419" lon="0.74265">
        <ele>112.9</ele>
        <time>2022-11-19T13:13:22.639Z</time>
      </trkpt>
      <trkpt lat="44.21428" lon="0.74272">
        <ele>114.4</ele>
        <time>2022-11-19T13:13:30.639Z</time>
      </trkpt>
      <trkpt lat="44.2143" lon="0.74275">
        <ele>114.7</ele>
        <time>2022-11-19T13:13:32.639Z</time>
      </trkpt>
      <trkpt lat="44.21441" lon="0.74279">
        <ele>115.8</ele>
        <time>2022-11-19T13:13:44.639Z</time>
      </trkpt>
      <trkpt lat="44.21449" lon="0.74284">
        <ele>117.3</ele>
        <time>2022-11-19T13:13:52.639Z</time>
      </trkpt>
      <trkpt lat="44.21454" lon="0.74285">
        <ele>118.1</ele>
        <time>2022-11-19T13:13:56.639Z</time>
      </trkpt>
      <trkpt lat="44.21456" lon="0.74288">
        <ele>118.7</ele>
        <time>2022-11-19T13:14:00.639Z</time>
      </trkpt>
      <trkpt lat="44.21461" lon="0.74289">
        <ele>119.6</ele>
        <time>2022-11-19T13:14:04.639Z</time>
      </trkpt>
      <trkpt lat="44.2147" lon="0.74292">
        <ele>121.1</ele>
        <time>2022-11-19T13:14:12.639Z</time>
      </trkpt>
      <trkpt lat="44.21477" lon="0.74293">
        <ele>122.4</ele>
        <time>2022-11-19T13:14:20.639Z</time>
      </trkpt>
      <trkpt lat="44.21496" lon="0.743">
        <ele>126.1</ele>
        <time>2022-11-19T13:14:44.639Z</time>
      </trkpt>
      <trkpt lat="44.21506" lon="0.743">
        <ele>127.9</ele>
        <time>2022-11-19T13:14:56.639Z</time>
      </trkpt>
      <trkpt lat="44.21514" lon="0.74299">
        <ele>129.5</ele>
        <time>2022-11-19T13:15:04.639Z</time>
      </trkpt>
      <trkpt lat="44.21524" lon="0.743">
        <ele>131.5</ele>
        <time>2022-11-19T13:15:14.639Z</time>
      </trkpt>
      <trkpt lat="44.21528" lon="0.74297">
        <ele>132.3</ele>
        <time>2022-11-19T13:15:18.639Z</time>
      </trkpt>
      <trkpt lat="44.21533" lon="0.74297">
        <ele>133.2</ele>
        <time>2022-11-19T13:15:22.639Z</time>
      </trkpt>
      <trkpt lat="44.21536" lon="0.74299">
        <ele>133.9</ele>
        <time>2022-11-19T13:15:26.639Z</time>
      </trkpt>
      <trkpt lat="44.21543" lon="0.74297">
        <ele>135.3</ele>
        <time>2022-11-19T13:15:34.639Z</time>
      </trkpt>
      <trkpt lat="44.2155" lon="0.74298">
        <ele>136.5</ele>
        <time>2022-11-19T13:15:42.639Z</time>
      </trkpt>
      <trkpt lat="44.21554" lon="0.74297">
        <ele>137.3</ele>
        <time>2022-11-19T13:15:44.639Z</time>
      </trkpt>
      <trkpt lat="44.21556" lon="0.74295">
        <ele>137.9</ele>
        <time>2022-11-19T13:15:46.639Z</time>
      </trkpt>
      <trkpt lat="44.21564" lon="0.74292">
        <ele>139.3</ele>
        <time>2022-11-19T13:15:54.639Z</time>
      </trkpt>
      <trkpt lat="44.21574" lon="0.74286">
        <ele>141.8</ele>
        <time>2022-11-19T13:16:06.639Z</time>
      </trkpt>
      <trkpt lat="44.21582" lon="0.74285">
        <ele>143.5</ele>
        <time>2022-11-19T13:16:14.639Z</time>
      </trkpt>
      <trkpt lat="44.21586" lon="0.74285">
        <ele>143.8</ele>
        <time>2022-11-19T13:16:18.639Z</time>
      </trkpt>
      <trkpt lat="44.21601" lon="0.74283">
        <ele>145.2</ele>
        <time>2022-11-19T13:16:34.639Z</time>
      </trkpt>
      <trkpt lat="44.21607" lon="0.74283">
        <ele>145.5</ele>
        <time>2022-11-19T13:16:40.639Z</time>
      </trkpt>
      <trkpt lat="44.21614" lon="0.74279">
        <ele>147</ele>
        <time>2022-11-19T13:16:48.639Z</time>
      </trkpt>
      <trkpt lat="44.21618" lon="0.74279">
        <ele>147.4</ele>
        <time>2022-11-19T13:16:52.639Z</time>
      </trkpt>
      <trkpt lat="44.21625" lon="0.74283">
        <ele>147.5</ele>
        <time>2022-11-19T13:17:00.639Z</time>
      </trkpt>
      <trkpt lat="44.21628" lon="0.74285">
        <ele>147.4</ele>
        <time>2022-11-19T13:17:04.639Z</time>
      </trkpt>
      <trkpt lat="44.21643" lon="0.74292">
        <ele>148</ele>
        <time>2022-11-19T13:17:20.639Z</time>
      </trkpt>
      <trkpt lat="44.21658" lon="0.74296">
        <ele>149.9</ele>
        <time>2022-11-19T13:17:36.639Z</time>
      </trkpt>
      <trkpt lat="44.21669" lon="0.74301">
        <ele>151.4</ele>
        <time>2022-11-19T13:17:46.639Z</time>
      </trkpt>
      <trkpt lat="44.21739" lon="0.74305">
        <ele>158.4</ele>
        <time>2022-11-19T13:18:50.639Z</time>
      </trkpt>
      <trkpt lat="44.21747" lon="0.74307">
        <ele>159.6</ele>
        <time>2022-11-19T13:18:58.639Z</time>
      </trkpt>
      <trkpt lat="44.21754" lon="0.74312">
        <ele>160.6</ele>
        <time>2022-11-19T13:19:06.639Z</time>
      </trkpt>
      <trkpt lat="44.21762" lon="0.74318">
        <ele>161.7</ele>
        <time>2022-11-19T13:19:14.639Z</time>
      </trkpt>
      <trkpt lat="44.21794" lon="0.74358">
        <ele>166.2</ele>
        <time>2022-11-19T13:19:54.639Z</time>
      </trkpt>
      <trkpt lat="44.21817" lon="0.74396">
        <ele>168.8</ele>
        <time>2022-11-19T13:20:26.639Z</time>
      </trkpt>
      <trkpt lat="44.21825" lon="0.74415">
        <ele>169.4</ele>
        <time>2022-11-19T13:20:42.639Z</time>
      </trkpt>
      <trkpt lat="44.21829" lon="0.74419">
        <ele>169.5</ele>
        <time>2022-11-19T13:22:33.116Z</time>
      </trkpt>
      <trkpt lat="44.21835" lon="0.74425">
        <ele>169.3</ele>
        <time>2022-11-19T13:24:41.943Z</time>
      </trkpt>
      <trkpt lat="44.21838" lon="0.7443">
        <ele>168.7</ele>
        <time>2022-11-19T13:24:45.943Z</time>
      </trkpt>
      <trkpt lat="44.21845" lon="0.74438">
        <ele>167.9</ele>
        <time>2022-11-19T13:24:53.943Z</time>
      </trkpt>
      <trkpt lat="44.21848" lon="0.74443">
        <ele>167.5</ele>
        <time>2022-11-19T13:24:57.943Z</time>
      </trkpt>
      <trkpt lat="44.21864" lon="0.74455">
        <ele>166.9</ele>
        <time>2022-11-19T13:25:13.943Z</time>
      </trkpt>
      <trkpt lat="44.21878" lon="0.74471">
        <ele>166.4</ele>
        <time>2022-11-19T13:25:29.943Z</time>
      </trkpt>
      <trkpt lat="44.21902" lon="0.74494">
        <ele>166.8</ele>
        <time>2022-11-19T13:25:53.943Z</time>
      </trkpt>
      <trkpt lat="44.21923" lon="0.74519">
        <ele>167.3</ele>
        <time>2022-11-19T13:26:17.943Z</time>
      </trkpt>
      <trkpt lat="44.21931" lon="0.74525">
        <ele>167</ele>
        <time>2022-11-19T13:26:25.943Z</time>
      </trkpt>
      <trkpt lat="44.21943" lon="0.74533">
        <ele>167</ele>
        <time>2022-11-19T13:26:37.943Z</time>
      </trkpt>
      <trkpt lat="44.21946" lon="0.74537">
        <ele>166.9</ele>
        <time>2022-11-19T13:26:41.943Z</time>
      </trkpt>
      <trkpt lat="44.2195" lon="0.74539">
        <ele>166.6</ele>
        <time>2022-11-19T13:26:45.943Z</time>
      </trkpt>
      <trkpt lat="44.21996" lon="0.74581">
        <ele>164.1</ele>
        <time>2022-11-19T13:27:33.943Z</time>
      </trkpt>
      <trkpt lat="44.2202" lon="0.74599">
        <ele>163.7</ele>
        <time>2022-11-19T13:27:57.943Z</time>
      </trkpt>
      <trkpt lat="44.22023" lon="0.746">
        <ele>163.7</ele>
        <time>2022-11-19T13:27:59.943Z</time>
      </trkpt>
      <trkpt lat="44.22027" lon="0.74604">
        <ele>163.7</ele>
        <time>2022-11-19T13:28:03.943Z</time>
      </trkpt>
      <trkpt lat="44.22037" lon="0.74609">
        <ele>164.2</ele>
        <time>2022-11-19T13:28:11.943Z</time>
      </trkpt>
      <trkpt lat="44.22055" lon="0.74617">
        <ele>165</ele>
        <time>2022-11-19T13:28:27.943Z</time>
      </trkpt>
      <trkpt lat="44.22073" lon="0.74623">
        <ele>165.6</ele>
        <time>2022-11-19T13:28:43.943Z</time>
      </trkpt>
      <trkpt lat="44.22101" lon="0.74629">
        <ele>166.9</ele>
        <time>2022-11-19T13:29:20.913Z</time>
      </trkpt>
      <trkpt lat="44.22103" lon="0.7463">
        <ele>166.9</ele>
        <time>2022-11-19T13:29:52.382Z</time>
      </trkpt>
      <trkpt lat="44.22112" lon="0.74633">
        <ele>167.2</ele>
        <time>2022-11-19T13:30:00.382Z</time>
      </trkpt>
      <trkpt lat="44.22116" lon="0.74635">
        <ele>167.1</ele>
        <time>2022-11-19T13:30:04.382Z</time>
      </trkpt>
      <trkpt lat="44.22134" lon="0.74639">
        <ele>167</ele>
        <time>2022-11-19T13:30:20.382Z</time>
      </trkpt>
      <trkpt lat="44.22171" lon="0.74651">
        <ele>168.1</ele>
        <time>2022-11-19T13:30:52.382Z</time>
      </trkpt>
      <trkpt lat="44.22176" lon="0.74654">
        <ele>168.2</ele>
        <time>2022-11-19T13:30:56.382Z</time>
      </trkpt>
      <trkpt lat="44.22206" lon="0.74663">
        <ele>168.8</ele>
        <time>2022-11-19T13:31:20.382Z</time>
      </trkpt>
      <trkpt lat="44.22218" lon="0.7467">
        <ele>169.2</ele>
        <time>2022-11-19T13:31:32.382Z</time>
      </trkpt>
      <trkpt lat="44.22222" lon="0.74673">
        <ele>169.4</ele>
        <time>2022-11-19T13:31:36.382Z</time>
      </trkpt>
      <trkpt lat="44.22224" lon="0.74673">
        <ele>169.5</ele>
        <time>2022-11-19T13:31:38.382Z</time>
      </trkpt>
      <trkpt lat="44.2223" lon="0.74676">
        <ele>169.8</ele>
        <time>2022-11-19T13:31:44.382Z</time>
      </trkpt>
      <trkpt lat="44.22235" lon="0.7468">
        <ele>170.2</ele>
        <time>2022-11-19T13:31:48.382Z</time>
      </trkpt>
      <trkpt lat="44.22245" lon="0.74682">
        <ele>170.5</ele>
        <time>2022-11-19T13:31:56.382Z</time>
      </trkpt>
      <trkpt lat="44.22255" lon="0.74679">
        <ele>170.8</ele>
        <time>2022-11-19T13:32:04.382Z</time>
      </trkpt>
      <trkpt lat="44.22281" lon="0.74662">
        <ele>172.2</ele>
        <time>2022-11-19T13:32:28.382Z</time>
      </trkpt>
      <trkpt lat="44.22294" lon="0.74655">
        <ele>173.8</ele>
        <time>2022-11-19T13:32:40.382Z</time>
      </trkpt>
      <trkpt lat="44.223" lon="0.7465">
        <ele>174.3</ele>
        <time>2022-11-19T13:32:48.382Z</time>
      </trkpt>
      <trkpt lat="44.22317" lon="0.74639">
        <ele>175.6</ele>
        <time>2022-11-19T13:33:04.382Z</time>
      </trkpt>
      <trkpt lat="44.22326" lon="0.74629">
        <ele>176.5</ele>
        <time>2022-11-19T13:33:12.382Z</time>
      </trkpt>
      <trkpt lat="44.22331" lon="0.74627">
        <ele>177.2</ele>
        <time>2022-11-19T13:33:16.382Z</time>
      </trkpt>
      <trkpt lat="44.22335" lon="0.74624">
        <ele>177.6</ele>
        <time>2022-11-19T13:33:20.382Z</time>
      </trkpt>
      <trkpt lat="44.22338" lon="0.74621">
        <ele>177.7</ele>
        <time>2022-11-19T13:33:22.382Z</time>
      </trkpt>
      <trkpt lat="44.22347" lon="0.74617">
        <ele>178.5</ele>
        <time>2022-11-19T13:33:30.382Z</time>
      </trkpt>
      <trkpt lat="44.22356" lon="0.74604">
        <ele>179.4</ele>
        <time>2022-11-19T13:33:42.382Z</time>
      </trkpt>
      <trkpt lat="44.22373" lon="0.74587">
        <ele>180.4</ele>
        <time>2022-11-19T13:33:58.382Z</time>
      </trkpt>
      <trkpt lat="44.22397" lon="0.74552">
        <ele>181.6</ele>
        <time>2022-11-19T13:34:26.382Z</time>
      </trkpt>
      <trkpt lat="44.22404" lon="0.74541">
        <ele>182.1</ele>
        <time>2022-11-19T13:34:34.382Z</time>
      </trkpt>
      <trkpt lat="44.22423" lon="0.74523">
        <ele>183.1</ele>
        <time>2022-11-19T13:34:52.382Z</time>
      </trkpt>
      <trkpt lat="44.22424" lon="0.74519">
        <ele>183</ele>
        <time>2022-11-19T13:34:54.382Z</time>
      </trkpt>
      <trkpt lat="44.22439" lon="0.74505">
        <ele>183.7</ele>
        <time>2022-11-19T13:35:10.382Z</time>
      </trkpt>
      <trkpt lat="44.22447" lon="0.74498">
        <ele>183.9</ele>
        <time>2022-11-19T13:35:18.382Z</time>
      </trkpt>
      <trkpt lat="44.22452" lon="0.74496">
        <ele>183.9</ele>
        <time>2022-11-19T13:35:22.382Z</time>
      </trkpt>
      <trkpt lat="44.22458" lon="0.74491">
        <ele>183.8</ele>
        <time>2022-11-19T13:35:28.382Z</time>
      </trkpt>
      <trkpt lat="44.22473" lon="0.74482">
        <ele>184</ele>
        <time>2022-11-19T13:35:40.382Z</time>
      </trkpt>
      <trkpt lat="44.22483" lon="0.74481">
        <ele>183.6</ele>
        <time>2022-11-19T13:35:48.382Z</time>
      </trkpt>
      <trkpt lat="44.22497" lon="0.74481">
        <ele>183.1</ele>
        <time>2022-11-19T13:36:00.382Z</time>
      </trkpt>
      <trkpt lat="44.22511" lon="0.74486">
        <ele>182.4</ele>
        <time>2022-11-19T13:36:12.382Z</time>
      </trkpt>
      <trkpt lat="44.22521" lon="0.74488">
        <ele>181.8</ele>
        <time>2022-11-19T13:36:20.382Z</time>
      </trkpt>
      <trkpt lat="44.22539" lon="0.74496">
        <ele>180.7</ele>
        <time>2022-11-19T13:36:36.382Z</time>
      </trkpt>
      <trkpt lat="44.22548" lon="0.74497">
        <ele>180.3</ele>
        <time>2022-11-19T13:36:44.382Z</time>
      </trkpt>
      <trkpt lat="44.22566" lon="0.74507">
        <ele>178.9</ele>
        <time>2022-11-19T13:37:03.382Z</time>
      </trkpt>
      <trkpt lat="44.22578" lon="0.7451">
        <ele>178.3</ele>
        <time>2022-11-19T13:37:12.382Z</time>
      </trkpt>
      <trkpt lat="44.22586" lon="0.74518">
        <ele>177.8</ele>
        <time>2022-11-19T13:37:20.382Z</time>
      </trkpt>
      <trkpt lat="44.22591" lon="0.74522">
        <ele>177.4</ele>
        <time>2022-11-19T13:37:24.382Z</time>
      </trkpt>
      <trkpt lat="44.22604" lon="0.74522">
        <ele>176.4</ele>
        <time>2022-11-19T13:39:24.180Z</time>
      </trkpt>
      <trkpt lat="44.22616" lon="0.74518">
        <ele>175.3</ele>
        <time>2022-11-19T13:39:34.180Z</time>
      </trkpt>
      <trkpt lat="44.22621" lon="0.74511">
        <ele>174.6</ele>
        <time>2022-11-19T13:39:38.180Z</time>
      </trkpt>
      <trkpt lat="44.22625" lon="0.74507">
        <ele>174</ele>
        <time>2022-11-19T13:39:42.180Z</time>
      </trkpt>
      <trkpt lat="44.22626" lon="0.74505">
        <ele>173.7</ele>
        <time>2022-11-19T13:39:44.180Z</time>
      </trkpt>
      <trkpt lat="44.22629" lon="0.74503">
        <ele>173.3</ele>
        <time>2022-11-19T13:39:46.180Z</time>
      </trkpt>
      <trkpt lat="44.22634" lon="0.74502">
        <ele>172.7</ele>
        <time>2022-11-19T13:39:50.180Z</time>
      </trkpt>
      <trkpt lat="44.22639" lon="0.74499">
        <ele>171.8</ele>
        <time>2022-11-19T13:39:54.180Z</time>
      </trkpt>
      <trkpt lat="44.22654" lon="0.74496">
        <ele>170.6</ele>
        <time>2022-11-19T13:40:06.180Z</time>
      </trkpt>
      <trkpt lat="44.22657" lon="0.74495">
        <ele>170.3</ele>
        <time>2022-11-19T13:40:08.180Z</time>
      </trkpt>
      <trkpt lat="44.22662" lon="0.74496">
        <ele>170</ele>
        <time>2022-11-19T13:40:12.180Z</time>
      </trkpt>
      <trkpt lat="44.22671" lon="0.74491">
        <ele>169.7</ele>
        <time>2022-11-19T13:40:20.180Z</time>
      </trkpt>
      <trkpt lat="44.22679" lon="0.74484">
        <ele>169.6</ele>
        <time>2022-11-19T13:40:28.180Z</time>
      </trkpt>
      <trkpt lat="44.22684" lon="0.74483">
        <ele>169.9</ele>
        <time>2022-11-19T13:40:32.180Z</time>
      </trkpt>
      <trkpt lat="44.22686" lon="0.74482">
        <ele>169.8</ele>
        <time>2022-11-19T13:40:34.180Z</time>
      </trkpt>
      <trkpt lat="44.22696" lon="0.7446">
        <ele>168.4</ele>
        <time>2022-11-19T13:40:50.180Z</time>
      </trkpt>
      <trkpt lat="44.22698" lon="0.74449">
        <ele>167.9</ele>
        <time>2022-11-19T13:40:58.180Z</time>
      </trkpt>
      <trkpt lat="44.22701" lon="0.74439">
        <ele>167.4</ele>
        <time>2022-11-19T13:41:06.180Z</time>
      </trkpt>
      <trkpt lat="44.22707" lon="0.74429">
        <ele>166.8</ele>
        <time>2022-11-19T13:41:14.180Z</time>
      </trkpt>
      <trkpt lat="44.22711" lon="0.74417">
        <ele>166.4</ele>
        <time>2022-11-19T13:41:22.180Z</time>
      </trkpt>
      <trkpt lat="44.22714" lon="0.74413">
        <ele>166.4</ele>
        <time>2022-11-19T13:41:26.180Z</time>
      </trkpt>
      <trkpt lat="44.22716" lon="0.74407">
        <ele>166.4</ele>
        <time>2022-11-19T13:41:30.180Z</time>
      </trkpt>
      <trkpt lat="44.22726" lon="0.74391">
        <ele>166.6</ele>
        <time>2022-11-19T13:41:44.180Z</time>
      </trkpt>
      <trkpt lat="44.2273" lon="0.74389">
        <ele>166.4</ele>
        <time>2022-11-19T13:41:48.180Z</time>
      </trkpt>
      <trkpt lat="44.22744" lon="0.74373">
        <ele>165.3</ele>
        <time>2022-11-19T13:42:04.180Z</time>
      </trkpt>
      <trkpt lat="44.2276" lon="0.7436">
        <ele>164.6</ele>
        <time>2022-11-19T13:42:20.180Z</time>
      </trkpt>
      <trkpt lat="44.22776" lon="0.74346">
        <ele>164</ele>
        <time>2022-11-19T13:42:36.180Z</time>
      </trkpt>
      <trkpt lat="44.22783" lon="0.74337">
        <ele>164.4</ele>
        <time>2022-11-19T13:42:44.180Z</time>
      </trkpt>
      <trkpt lat="44.22794" lon="0.74317">
        <ele>164.9</ele>
        <time>2022-11-19T13:43:00.180Z</time>
      </trkpt>
      <trkpt lat="44.22798" lon="0.74306">
        <ele>165.1</ele>
        <time>2022-11-19T13:43:08.180Z</time>
      </trkpt>
      <trkpt lat="44.22798" lon="0.743">
        <ele>164.8</ele>
        <time>2022-11-19T13:43:12.180Z</time>
      </trkpt>
      <trkpt lat="44.228" lon="0.74294">
        <ele>164.7</ele>
        <time>2022-11-19T13:43:16.180Z</time>
      </trkpt>
      <trkpt lat="44.22802" lon="0.74286">
        <ele>164.3</ele>
        <time>2022-11-19T13:43:20.180Z</time>
      </trkpt>
      <trkpt lat="44.2281" lon="0.74265">
        <ele>163.3</ele>
        <time>2022-11-19T13:43:36.180Z</time>
      </trkpt>
      <trkpt lat="44.22819" lon="0.74246">
        <ele>162.8</ele>
        <time>2022-11-19T13:43:56.180Z</time>
      </trkpt>
      <trkpt lat="44.22819" lon="0.74243">
        <ele>162.7</ele>
        <time>2022-11-19T13:43:58.180Z</time>
      </trkpt>
      <trkpt lat="44.22821" lon="0.7424">
        <ele>162.7</ele>
        <time>2022-11-19T13:44:00.180Z</time>
      </trkpt>
      <trkpt lat="44.22824" lon="0.74238">
        <ele>162.9</ele>
        <time>2022-11-19T13:44:02.180Z</time>
      </trkpt>
      <trkpt lat="44.22824" lon="0.74232">
        <ele>162.7</ele>
        <time>2022-11-19T13:44:06.180Z</time>
      </trkpt>
      <trkpt lat="44.22827" lon="0.7422">
        <ele>162.7</ele>
        <time>2022-11-19T13:44:14.180Z</time>
      </trkpt>
      <trkpt lat="44.22832" lon="0.74206">
        <ele>163.5</ele>
        <time>2022-11-19T13:44:22.180Z</time>
      </trkpt>
      <trkpt lat="44.22835" lon="0.742">
        <ele>164</ele>
        <time>2022-11-19T13:44:26.180Z</time>
      </trkpt>
      <trkpt lat="44.22839" lon="0.74182">
        <ele>165.5</ele>
        <time>2022-11-19T13:44:38.180Z</time>
      </trkpt>
      <trkpt lat="44.22841" lon="0.74177">
        <ele>166.1</ele>
        <time>2022-11-19T13:44:42.180Z</time>
      </trkpt>
      <trkpt lat="44.22843" lon="0.74175">
        <ele>166.5</ele>
        <time>2022-11-19T13:44:44.180Z</time>
      </trkpt>
      <trkpt lat="44.22844" lon="0.74175">
        <ele>166.6</ele>
        <time>2022-11-19T13:44:45.180Z</time>
      </trkpt>
      <trkpt lat="44.22858" lon="0.74151">
        <ele>169.2</ele>
        <time>2022-11-19T13:45:05.180Z</time>
      </trkpt>
      <trkpt lat="44.22858" lon="0.74147">
        <ele>169.3</ele>
        <time>2022-11-19T13:45:07.180Z</time>
      </trkpt>
      <trkpt lat="44.22865" lon="0.74139">
        <ele>170.6</ele>
        <time>2022-11-19T13:45:15.180Z</time>
      </trkpt>
      <trkpt lat="44.2287" lon="0.74137">
        <ele>171.3</ele>
        <time>2022-11-19T13:45:19.180Z</time>
      </trkpt>
      <trkpt lat="44.22878" lon="0.74135">
        <ele>172.4</ele>
        <time>2022-11-19T13:45:27.180Z</time>
      </trkpt>
      <trkpt lat="44.22883" lon="0.74136">
        <ele>173.2</ele>
        <time>2022-11-19T13:45:31.180Z</time>
      </trkpt>
      <trkpt lat="44.22891" lon="0.74135">
        <ele>174.2</ele>
        <time>2022-11-19T13:45:39.180Z</time>
      </trkpt>
      <trkpt lat="44.2292" lon="0.74126">
        <ele>177.1</ele>
        <time>2022-11-19T13:46:07.180Z</time>
      </trkpt>
      <trkpt lat="44.22933" lon="0.74116">
        <ele>178.9</ele>
        <time>2022-11-19T13:46:23.180Z</time>
      </trkpt>
      <trkpt lat="44.22945" lon="0.741">
        <ele>180</ele>
        <time>2022-11-19T13:46:39.180Z</time>
      </trkpt>
      <trkpt lat="44.22953" lon="0.74087">
        <ele>180.9</ele>
        <time>2022-11-19T13:46:51.180Z</time>
      </trkpt>
      <trkpt lat="44.22961" lon="0.74076">
        <ele>181.3</ele>
        <time>2022-11-19T13:47:03.180Z</time>
      </trkpt>
      <trkpt lat="44.22966" lon="0.74064">
        <ele>180.9</ele>
        <time>2022-11-19T13:47:11.180Z</time>
      </trkpt>
      <trkpt lat="44.22971" lon="0.74056">
        <ele>180.9</ele>
        <time>2022-11-19T13:47:19.180Z</time>
      </trkpt>
      <trkpt lat="44.22985" lon="0.74043">
        <ele>181.7</ele>
        <time>2022-11-19T13:47:34.180Z</time>
      </trkpt>
      <trkpt lat="44.22986" lon="0.74039">
        <ele>181.6</ele>
        <time>2022-11-19T13:47:36.180Z</time>
      </trkpt>
      <trkpt lat="44.22991" lon="0.74029">
        <ele>182.1</ele>
        <time>2022-11-19T13:47:44.180Z</time>
      </trkpt>
      <trkpt lat="44.22996" lon="0.74025">
        <ele>182.9</ele>
        <time>2022-11-19T13:47:50.180Z</time>
      </trkpt>
      <trkpt lat="44.23008" lon="0.74001">
        <ele>182.2</ele>
        <time>2022-11-19T13:48:06.180Z</time>
      </trkpt>
      <trkpt lat="44.23017" lon="0.73977">
        <ele>183.8</ele>
        <time>2022-11-19T13:48:26.180Z</time>
      </trkpt>
      <trkpt lat="44.23023" lon="0.73959">
        <ele>184.6</ele>
        <time>2022-11-19T13:48:38.180Z</time>
      </trkpt>
      <trkpt lat="44.23028" lon="0.73948">
        <ele>185</ele>
        <time>2022-11-19T13:48:46.180Z</time>
      </trkpt>
      <trkpt lat="44.23035" lon="0.73926">
        <ele>185.5</ele>
        <time>2022-11-19T13:49:02.180Z</time>
      </trkpt>
      <trkpt lat="44.23043" lon="0.73889">
        <ele>186</ele>
        <time>2022-11-19T13:51:36.573Z</time>
      </trkpt>
      <trkpt lat="44.23043" lon="0.73885">
        <ele>186</ele>
        <time>2022-11-19T13:53:59.241Z</time>
      </trkpt>
      <trkpt lat="44.23042" lon="0.73878">
        <ele>186</ele>
        <time>2022-11-19T13:54:07.241Z</time>
      </trkpt>
      <trkpt lat="44.23044" lon="0.7387">
        <ele>186</ele>
        <time>2022-11-19T13:54:13.241Z</time>
      </trkpt>
      <trkpt lat="44.23032" lon="0.73832">
        <ele>185.2</ele>
        <time>2022-11-19T13:54:37.241Z</time>
      </trkpt>
      <trkpt lat="44.23027" lon="0.73821">
        <ele>185</ele>
        <time>2022-11-19T13:54:45.241Z</time>
      </trkpt>
      <trkpt lat="44.23012" lon="0.73769">
        <ele>184</ele>
        <time>2022-11-19T13:55:17.241Z</time>
      </trkpt>
      <trkpt lat="44.23007" lon="0.73757">
        <ele>184</ele>
        <time>2022-11-19T13:55:25.241Z</time>
      </trkpt>
      <trkpt lat="44.22999" lon="0.73733">
        <ele>183.9</ele>
        <time>2022-11-19T13:55:41.241Z</time>
      </trkpt>
      <trkpt lat="44.22984" lon="0.73697">
        <ele>184</ele>
        <time>2022-11-19T13:56:05.241Z</time>
      </trkpt>
      <trkpt lat="44.22966" lon="0.73665">
        <ele>184.2</ele>
        <time>2022-11-19T13:56:29.241Z</time>
      </trkpt>
      <trkpt lat="44.22958" lon="0.73641">
        <ele>184.1</ele>
        <time>2022-11-19T13:56:45.241Z</time>
      </trkpt>
      <trkpt lat="44.22951" lon="0.73617">
        <ele>185.1</ele>
        <time>2022-11-19T13:57:01.241Z</time>
      </trkpt>
      <trkpt lat="44.22945" lon="0.73588">
        <ele>185.1</ele>
        <time>2022-11-19T13:57:21.241Z</time>
      </trkpt>
      <trkpt lat="44.22944" lon="0.73582">
        <ele>185</ele>
        <time>2022-11-19T13:57:25.241Z</time>
      </trkpt>
      <trkpt lat="44.22941" lon="0.73571">
        <ele>184.8</ele>
        <time>2022-11-19T13:57:33.241Z</time>
      </trkpt>
      <trkpt lat="44.22938" lon="0.73554">
        <ele>184.6</ele>
        <time>2022-11-19T13:57:45.241Z</time>
      </trkpt>
      <trkpt lat="44.22939" lon="0.7354">
        <ele>184.6</ele>
        <time>2022-11-19T13:57:53.241Z</time>
      </trkpt>
      <trkpt lat="44.2294" lon="0.73537">
        <ele>184.7</ele>
        <time>2022-11-19T13:57:57.241Z</time>
      </trkpt>
      <trkpt lat="44.2294" lon="0.73532">
        <ele>184.7</ele>
        <time>2022-11-19T13:58:00.241Z</time>
      </trkpt>
      <trkpt lat="44.22936" lon="0.73525">
        <ele>184.4</ele>
        <time>2022-11-19T13:58:04.241Z</time>
      </trkpt>
      <trkpt lat="44.22933" lon="0.73514">
        <ele>184.2</ele>
        <time>2022-11-19T13:58:12.241Z</time>
      </trkpt>
      <trkpt lat="44.22933" lon="0.73493">
        <ele>184.3</ele>
        <time>2022-11-19T13:58:24.241Z</time>
      </trkpt>
      <trkpt lat="44.22933" lon="0.73465">
        <ele>184.9</ele>
        <time>2022-11-19T13:58:40.241Z</time>
      </trkpt>
      <trkpt lat="44.22934" lon="0.73438">
        <ele>185.5</ele>
        <time>2022-11-19T13:58:56.241Z</time>
      </trkpt>
      <trkpt lat="44.22939" lon="0.73378">
        <ele>186.4</ele>
        <time>2022-11-19T13:59:32.241Z</time>
      </trkpt>
      <trkpt lat="44.22944" lon="0.73364">
        <ele>186.9</ele>
        <time>2022-11-19T13:59:44.241Z</time>
      </trkpt>
      <trkpt lat="44.22941" lon="0.73351">
        <ele>186.3</ele>
        <time>2022-11-19T13:59:52.241Z</time>
      </trkpt>
      <trkpt lat="44.22948" lon="0.73318">
        <ele>185.8</ele>
        <time>2022-11-19T14:00:12.241Z</time>
      </trkpt>
      <trkpt lat="44.2295" lon="0.73314">
        <ele>185.7</ele>
        <time>2022-11-19T14:00:16.241Z</time>
      </trkpt>
      <trkpt lat="44.22951" lon="0.73303">
        <ele>185.4</ele>
        <time>2022-11-19T14:00:24.241Z</time>
      </trkpt>
      <trkpt lat="44.22948" lon="0.73274">
        <ele>184.7</ele>
        <time>2022-11-19T14:00:48.241Z</time>
      </trkpt>
      <trkpt lat="44.22945" lon="0.73266">
        <ele>184.9</ele>
        <time>2022-11-19T14:00:56.241Z</time>
      </trkpt>
      <trkpt lat="44.22943" lon="0.7324">
        <ele>184.7</ele>
        <time>2022-11-19T14:01:13.241Z</time>
      </trkpt>
      <trkpt lat="44.22942" lon="0.73237">
        <ele>184.6</ele>
        <time>2022-11-19T14:01:15.241Z</time>
      </trkpt>
      <trkpt lat="44.22942" lon="0.73222">
        <ele>184.1</ele>
        <time>2022-11-19T14:01:23.241Z</time>
      </trkpt>
      <trkpt lat="44.2294" lon="0.73201">
        <ele>184</ele>
        <time>2022-11-19T14:01:35.241Z</time>
      </trkpt>
      <trkpt lat="44.2294" lon="0.73194">
        <ele>184</ele>
        <time>2022-11-19T14:01:39.241Z</time>
      </trkpt>
      <trkpt lat="44.22939" lon="0.73186">
        <ele>183.7</ele>
        <time>2022-11-19T14:01:43.241Z</time>
      </trkpt>
      <trkpt lat="44.22939" lon="0.73174">
        <ele>183.3</ele>
        <time>2022-11-19T14:01:51.241Z</time>
      </trkpt>
      <trkpt lat="44.22937" lon="0.73156">
        <ele>182.5</ele>
        <time>2022-11-19T14:02:03.241Z</time>
      </trkpt>
      <trkpt lat="44.22935" lon="0.73143">
        <ele>181.8</ele>
        <time>2022-11-19T14:05:42.068Z</time>
      </trkpt>
      <trkpt lat="44.22926" lon="0.7315">
        <ele>182</ele>
        <time>2022-11-19T14:06:40.578Z</time>
      </trkpt>
      <trkpt lat="44.22923" lon="0.73151">
        <ele>182</ele>
        <time>2022-11-19T14:06:44.578Z</time>
      </trkpt>
      <trkpt lat="44.22916" lon="0.73157">
        <ele>182.2</ele>
        <time>2022-11-19T14:06:52.578Z</time>
      </trkpt>
      <trkpt lat="44.22911" lon="0.73163">
        <ele>182.3</ele>
        <time>2022-11-19T14:07:00.578Z</time>
      </trkpt>
      <trkpt lat="44.22902" lon="0.73171">
        <ele>182.1</ele>
        <time>2022-11-19T14:07:08.578Z</time>
      </trkpt>
      <trkpt lat="44.22873" lon="0.7319">
        <ele>181</ele>
        <time>2022-11-19T14:07:36.578Z</time>
      </trkpt>
      <trkpt lat="44.22869" lon="0.7319">
        <ele>180.6</ele>
        <time>2022-11-19T14:07:40.578Z</time>
      </trkpt>
      <trkpt lat="44.22857" lon="0.73197">
        <ele>179.9</ele>
        <time>2022-11-19T14:07:54.578Z</time>
      </trkpt>
      <trkpt lat="44.22853" lon="0.732">
        <ele>180</ele>
        <time>2022-11-19T14:07:58.578Z</time>
      </trkpt>
      <trkpt lat="44.22843" lon="0.73204">
        <ele>179.9</ele>
        <time>2022-11-19T14:08:06.578Z</time>
      </trkpt>
      <trkpt lat="44.22837" lon="0.73204">
        <ele>179.8</ele>
        <time>2022-11-19T14:08:12.578Z</time>
      </trkpt>
      <trkpt lat="44.22833" lon="0.73205">
        <ele>179.7</ele>
        <time>2022-11-19T14:08:16.579Z</time>
      </trkpt>
      <trkpt lat="44.22817" lon="0.73204">
        <ele>179.5</ele>
        <time>2022-11-19T14:08:26.578Z</time>
      </trkpt>
      <trkpt lat="44.2281" lon="0.73198">
        <ele>179.1</ele>
        <time>2022-11-19T14:08:32.578Z</time>
      </trkpt>
      <trkpt lat="44.22787" lon="0.73185">
        <ele>178.1</ele>
        <time>2022-11-19T14:08:52.578Z</time>
      </trkpt>
      <trkpt lat="44.22785" lon="0.73183">
        <ele>178</ele>
        <time>2022-11-19T14:08:54.578Z</time>
      </trkpt>
      <trkpt lat="44.22775" lon="0.73176">
        <ele>177.9</ele>
        <time>2022-11-19T14:09:02.578Z</time>
      </trkpt>
      <trkpt lat="44.22757" lon="0.73156">
        <ele>177.4</ele>
        <time>2022-11-19T14:09:22.578Z</time>
      </trkpt>
      <trkpt lat="44.22743" lon="0.73128">
        <ele>176.4</ele>
        <time>2022-11-19T14:09:42.578Z</time>
      </trkpt>
      <trkpt lat="44.22733" lon="0.73118">
        <ele>176.4</ele>
        <time>2022-11-19T14:09:52.578Z</time>
      </trkpt>
      <trkpt lat="44.2273" lon="0.73113">
        <ele>176.5</ele>
        <time>2022-11-19T14:09:56.578Z</time>
      </trkpt>
      <trkpt lat="44.22727" lon="0.73109">
        <ele>176.6</ele>
        <time>2022-11-19T14:10:00.578Z</time>
      </trkpt>
      <trkpt lat="44.22726" lon="0.73106">
        <ele>176.5</ele>
        <time>2022-11-19T14:10:02.578Z</time>
      </trkpt>
      <trkpt lat="44.22713" lon="0.73088">
        <ele>176.1</ele>
        <time>2022-11-19T14:10:18.578Z</time>
      </trkpt>
      <trkpt lat="44.22709" lon="0.73085">
        <ele>176</ele>
        <time>2022-11-19T14:10:22.578Z</time>
      </trkpt>
      <trkpt lat="44.22707" lon="0.73085">
        <ele>176</ele>
        <time>2022-11-19T14:10:32.103Z</time>
      </trkpt>
      <trkpt lat="44.22693" lon="0.73074">
        <ele>176.3</ele>
        <time>2022-11-19T14:10:50.103Z</time>
      </trkpt>
      <trkpt lat="44.2269" lon="0.73069">
        <ele>176.5</ele>
        <time>2022-11-19T14:10:54.103Z</time>
      </trkpt>
      <trkpt lat="44.22688" lon="0.73065">
        <ele>176.7</ele>
        <time>2022-11-19T14:10:57.103Z</time>
      </trkpt>
      <trkpt lat="44.22682" lon="0.73062">
        <ele>176.8</ele>
        <time>2022-11-19T14:11:02.103Z</time>
      </trkpt>
      <trkpt lat="44.22677" lon="0.73056">
        <ele>177</ele>
        <time>2022-11-19T14:11:06.103Z</time>
      </trkpt>
      <trkpt lat="44.22656" lon="0.73039">
        <ele>177.6</ele>
        <time>2022-11-19T14:11:27.103Z</time>
      </trkpt>
      <trkpt lat="44.22652" lon="0.73038">
        <ele>177.7</ele>
        <time>2022-11-19T14:11:30.103Z</time>
      </trkpt>
      <trkpt lat="44.22647" lon="0.73032">
        <ele>177.8</ele>
        <time>2022-11-19T14:11:36.103Z</time>
      </trkpt>
      <trkpt lat="44.22636" lon="0.73027">
        <ele>177.7</ele>
        <time>2022-11-19T14:11:46.103Z</time>
      </trkpt>
      <trkpt lat="44.22632" lon="0.73027">
        <ele>177.2</ele>
        <time>2022-11-19T14:11:50.103Z</time>
      </trkpt>
      <trkpt lat="44.22623" lon="0.73022">
        <ele>176.5</ele>
        <time>2022-11-19T14:11:59.103Z</time>
      </trkpt>
      <trkpt lat="44.22611" lon="0.73018">
        <ele>175.7</ele>
        <time>2022-11-19T14:12:11.103Z</time>
      </trkpt>
      <trkpt lat="44.22609" lon="0.73014">
        <ele>175.8</ele>
        <time>2022-11-19T14:12:16.103Z</time>
      </trkpt>
      <trkpt lat="44.22599" lon="0.73012">
        <ele>175.1</ele>
        <time>2022-11-19T14:12:26.103Z</time>
      </trkpt>
      <trkpt lat="44.22584" lon="0.73017">
        <ele>173.2</ele>
        <time>2022-11-19T14:12:42.103Z</time>
      </trkpt>
      <trkpt lat="44.22579" lon="0.73018">
        <ele>173</ele>
        <time>2022-11-19T14:13:22.551Z</time>
      </trkpt>
      <trkpt lat="44.22576" lon="0.73021">
        <ele>172.8</ele>
        <time>2022-11-19T14:13:26.551Z</time>
      </trkpt>
      <trkpt lat="44.22571" lon="0.73023">
        <ele>172.7</ele>
        <time>2022-11-19T14:13:30.551Z</time>
      </trkpt>
      <trkpt lat="44.22562" lon="0.73023">
        <ele>172.9</ele>
        <time>2022-11-19T14:13:38.551Z</time>
      </trkpt>
      <trkpt lat="44.22546" lon="0.73031">
        <ele>172.7</ele>
        <time>2022-11-19T14:13:54.551Z</time>
      </trkpt>
      <trkpt lat="44.22542" lon="0.73035">
        <ele>172.4</ele>
        <time>2022-11-19T14:13:58.551Z</time>
      </trkpt>
      <trkpt lat="44.22537" lon="0.73035">
        <ele>172.4</ele>
        <time>2022-11-19T14:14:02.551Z</time>
      </trkpt>
      <trkpt lat="44.22533" lon="0.73038">
        <ele>172.2</ele>
        <time>2022-11-19T14:14:06.551Z</time>
      </trkpt>
      <trkpt lat="44.22512" lon="0.73046">
        <ele>171.5</ele>
        <time>2022-11-19T14:14:22.551Z</time>
      </trkpt>
      <trkpt lat="44.22503" lon="0.7305">
        <ele>171.2</ele>
        <time>2022-11-19T14:14:30.551Z</time>
      </trkpt>
      <trkpt lat="44.22494" lon="0.73053">
        <ele>171.1</ele>
        <time>2022-11-19T14:14:38.551Z</time>
      </trkpt>
      <trkpt lat="44.22465" lon="0.73057">
        <ele>170.7</ele>
        <time>2022-11-19T14:15:04.551Z</time>
      </trkpt>
      <trkpt lat="44.22458" lon="0.73057">
        <ele>170.4</ele>
        <time>2022-11-19T14:15:14.551Z</time>
      </trkpt>
      <trkpt lat="44.22435" lon="0.73062">
        <ele>169.6</ele>
        <time>2022-11-19T14:15:38.551Z</time>
      </trkpt>
      <trkpt lat="44.22404" lon="0.73063">
        <ele>168.9</ele>
        <time>2022-11-19T14:16:10.551Z</time>
      </trkpt>
      <trkpt lat="44.2236" lon="0.73061">
        <ele>168</ele>
        <time>2022-11-19T14:16:52.551Z</time>
      </trkpt>
      <trkpt lat="44.22349" lon="0.73058">
        <ele>168</ele>
        <time>2022-11-19T14:17:04.551Z</time>
      </trkpt>
      <trkpt lat="44.22341" lon="0.73057">
        <ele>168</ele>
        <time>2022-11-19T14:17:12.551Z</time>
      </trkpt>
      <trkpt lat="44.22328" lon="0.73054">
        <ele>167.9</ele>
        <time>2022-11-19T14:17:24.551Z</time>
      </trkpt>
      <trkpt lat="44.22325" lon="0.73054">
        <ele>167.9</ele>
        <time>2022-11-19T14:17:28.551Z</time>
      </trkpt>
      <trkpt lat="44.22319" lon="0.73051">
        <ele>167.8</ele>
        <time>2022-11-19T14:17:36.551Z</time>
      </trkpt>
      <trkpt lat="44.22304" lon="0.7305">
        <ele>167.9</ele>
        <time>2022-11-19T14:17:52.551Z</time>
      </trkpt>
      <trkpt lat="44.22301" lon="0.73051">
        <ele>168</ele>
        <time>2022-11-19T14:18:04.535Z</time>
      </trkpt>
      <trkpt lat="44.22285" lon="0.7305">
        <ele>168.5</ele>
        <time>2022-11-19T14:18:20.535Z</time>
      </trkpt>
      <trkpt lat="44.22284" lon="0.73049">
        <ele>168.5</ele>
        <time>2022-11-19T14:18:22.535Z</time>
      </trkpt>
      <trkpt lat="44.22285" lon="0.73047">
        <ele>168.4</ele>
        <time>2022-11-19T14:18:26.535Z</time>
      </trkpt>
      <trkpt lat="44.22271" lon="0.73055">
        <ele>169.5</ele>
        <time>2022-11-19T14:18:45.535Z</time>
      </trkpt>
      <trkpt lat="44.22246" lon="0.73066">
        <ele>171.3</ele>
        <time>2022-11-19T14:19:09.535Z</time>
      </trkpt>
      <trkpt lat="44.22242" lon="0.73066">
        <ele>171.6</ele>
        <time>2022-11-19T14:19:13.535Z</time>
      </trkpt>
      <trkpt lat="44.22236" lon="0.73061">
        <ele>172</ele>
        <time>2022-11-19T14:19:23.535Z</time>
      </trkpt>
      <trkpt lat="44.22233" lon="0.7306">
        <ele>172.3</ele>
        <time>2022-11-19T14:19:27.536Z</time>
      </trkpt>
      <trkpt lat="44.22233" lon="0.73059">
        <ele>172.2</ele>
        <time>2022-11-19T14:19:28.535Z</time>
      </trkpt>
      <trkpt lat="44.22227" lon="0.73055">
        <ele>172.7</ele>
        <time>2022-11-19T14:19:42.032Z</time>
      </trkpt>
      <trkpt lat="44.22224" lon="0.73054">
        <ele>172.9</ele>
        <time>2022-11-19T14:19:48.032Z</time>
      </trkpt>
      <trkpt lat="44.22208" lon="0.73042">
        <ele>175.3</ele>
        <time>2022-11-19T14:20:13.405Z</time>
      </trkpt>
      <trkpt lat="44.222" lon="0.7304">
        <ele>176.4</ele>
        <time>2022-11-19T14:20:23.405Z</time>
      </trkpt>
      <trkpt lat="44.22196" lon="0.73034">
        <ele>176.8</ele>
        <time>2022-11-19T14:20:27.405Z</time>
      </trkpt>
      <trkpt lat="44.22189" lon="0.73032">
        <ele>177.4</ele>
        <time>2022-11-19T14:20:37.405Z</time>
      </trkpt>
      <trkpt lat="44.22184" lon="0.73029">
        <ele>177.7</ele>
        <time>2022-11-19T14:20:41.405Z</time>
      </trkpt>
      <trkpt lat="44.22173" lon="0.73023">
        <ele>178.5</ele>
        <time>2022-11-19T14:20:49.405Z</time>
      </trkpt>
      <trkpt lat="44.22166" lon="0.73021">
        <ele>179</ele>
        <time>2022-11-19T14:20:53.405Z</time>
      </trkpt>
      <trkpt lat="44.2216" lon="0.73016">
        <ele>179.2</ele>
        <time>2022-11-19T14:20:59.405Z</time>
      </trkpt>
      <trkpt lat="44.22154" lon="0.73012">
        <ele>179.5</ele>
        <time>2022-11-19T14:21:03.405Z</time>
      </trkpt>
      <trkpt lat="44.22152" lon="0.7301">
        <ele>179.5</ele>
        <time>2022-11-19T14:21:05.405Z</time>
      </trkpt>
      <trkpt lat="44.22145" lon="0.72988">
        <ele>179.4</ele>
        <time>2022-11-19T14:21:19.837Z</time>
      </trkpt>
      <trkpt lat="44.22145" lon="0.72981">
        <ele>179.2</ele>
        <time>2022-11-19T14:21:23.837Z</time>
      </trkpt>
      <trkpt lat="44.22142" lon="0.72969">
        <ele>178.9</ele>
        <time>2022-11-19T14:21:31.837Z</time>
      </trkpt>
      <trkpt lat="44.22142" lon="0.72966">
        <ele>178.8</ele>
        <time>2022-11-19T14:21:33.837Z</time>
      </trkpt>
      <trkpt lat="44.22141" lon="0.72959">
        <ele>178.6</ele>
        <time>2022-11-19T14:21:37.837Z</time>
      </trkpt>
      <trkpt lat="44.22135" lon="0.7295">
        <ele>177.8</ele>
        <time>2022-11-19T14:21:53.837Z</time>
      </trkpt>
      <trkpt lat="44.22131" lon="0.72943">
        <ele>177.4</ele>
        <time>2022-11-19T14:22:00.837Z</time>
      </trkpt>
      <trkpt lat="44.22131" lon="0.7294">
        <ele>177.4</ele>
        <time>2022-11-19T14:22:02.837Z</time>
      </trkpt>
      <trkpt lat="44.22132" lon="0.72934">
        <ele>177.4</ele>
        <time>2022-11-19T14:22:06.837Z</time>
      </trkpt>
      <trkpt lat="44.22131" lon="0.72928">
        <ele>177.2</ele>
        <time>2022-11-19T14:22:10.837Z</time>
      </trkpt>
      <trkpt lat="44.22129" lon="0.72927">
        <ele>177.1</ele>
        <time>2022-11-19T14:22:12.837Z</time>
      </trkpt>
      <trkpt lat="44.2213" lon="0.72921">
        <ele>177.1</ele>
        <time>2022-11-19T14:22:15.837Z</time>
      </trkpt>
      <trkpt lat="44.22122" lon="0.72918">
        <ele>176.2</ele>
        <time>2022-11-19T14:22:21.837Z</time>
      </trkpt>
      <trkpt lat="44.22113" lon="0.72919">
        <ele>175.3</ele>
        <time>2022-11-19T14:22:27.837Z</time>
      </trkpt>
      <trkpt lat="44.2211" lon="0.72916">
        <ele>174.7</ele>
        <time>2022-11-19T14:22:31.837Z</time>
      </trkpt>
      <trkpt lat="44.22111" lon="0.72893">
        <ele>174</ele>
        <time>2022-11-19T14:22:39.837Z</time>
      </trkpt>
      <trkpt lat="44.22108" lon="0.72879">
        <ele>173.6</ele>
        <time>2022-11-19T14:22:45.837Z</time>
      </trkpt>
      <trkpt lat="44.22109" lon="0.72859">
        <ele>173.7</ele>
        <time>2022-11-19T14:22:55.837Z</time>
      </trkpt>
      <trkpt lat="44.22108" lon="0.72857">
        <ele>173.5</ele>
        <time>2022-11-19T14:22:57.837Z</time>
      </trkpt>
      <trkpt lat="44.22107" lon="0.72839">
        <ele>173.7</ele>
        <time>2022-11-19T14:23:07.837Z</time>
      </trkpt>
      <trkpt lat="44.22106" lon="0.72834">
        <ele>173.6</ele>
        <time>2022-11-19T14:23:11.837Z</time>
      </trkpt>
      <trkpt lat="44.22105" lon="0.72828">
        <ele>173.9</ele>
        <time>2022-11-19T14:23:15.837Z</time>
      </trkpt>
      <trkpt lat="44.22099" lon="0.72818">
        <ele>174.3</ele>
        <time>2022-11-19T14:23:27.837Z</time>
      </trkpt>
      <trkpt lat="44.22098" lon="0.72813">
        <ele>174.5</ele>
        <time>2022-11-19T14:23:31.837Z</time>
      </trkpt>
      <trkpt lat="44.22096" lon="0.72811">
        <ele>174.5</ele>
        <time>2022-11-19T14:23:35.837Z</time>
      </trkpt>
      <trkpt lat="44.22091" lon="0.72795">
        <ele>175.6</ele>
        <time>2022-11-19T14:23:45.837Z</time>
      </trkpt>
      <trkpt lat="44.22085" lon="0.72785">
        <ele>176.3</ele>
        <time>2022-11-19T14:23:57.837Z</time>
      </trkpt>
      <trkpt lat="44.22085" lon="0.72778">
        <ele>177.1</ele>
        <time>2022-11-19T14:24:01.837Z</time>
      </trkpt>
      <trkpt lat="44.22081" lon="0.72772">
        <ele>177.4</ele>
        <time>2022-11-19T14:24:09.837Z</time>
      </trkpt>
      <trkpt lat="44.22079" lon="0.72761">
        <ele>178.2</ele>
        <time>2022-11-19T14:24:17.837Z</time>
      </trkpt>
      <trkpt lat="44.22079" lon="0.72748">
        <ele>179.1</ele>
        <time>2022-11-19T14:24:25.837Z</time>
      </trkpt>
      <trkpt lat="44.22077" lon="0.72736">
        <ele>179.4</ele>
        <time>2022-11-19T14:24:31.837Z</time>
      </trkpt>
      <trkpt lat="44.22079" lon="0.72716">
        <ele>180.1</ele>
        <time>2022-11-19T14:24:47.837Z</time>
      </trkpt>
      <trkpt lat="44.22081" lon="0.72709">
        <ele>180.4</ele>
        <time>2022-11-19T14:24:53.837Z</time>
      </trkpt>
      <trkpt lat="44.22081" lon="0.72701">
        <ele>180.7</ele>
        <time>2022-11-19T14:29:01.184Z</time>
      </trkpt>
      <trkpt lat="44.22083" lon="0.72696">
        <ele>180.9</ele>
        <time>2022-11-19T14:29:07.184Z</time>
      </trkpt>
      <trkpt lat="44.22087" lon="0.72686">
        <ele>181</ele>
        <time>2022-11-19T14:29:31.939Z</time>
      </trkpt>
      <trkpt lat="44.22091" lon="0.72673">
        <ele>181.2</ele>
        <time>2022-11-19T14:29:45.939Z</time>
      </trkpt>
      <trkpt lat="44.22091" lon="0.72662">
        <ele>181.1</ele>
        <time>2022-11-19T14:29:53.939Z</time>
      </trkpt>
      <trkpt lat="44.22092" lon="0.7264">
        <ele>180.7</ele>
        <time>2022-11-19T14:30:01.939Z</time>
      </trkpt>
      <trkpt lat="44.22095" lon="0.72625">
        <ele>180.6</ele>
        <time>2022-11-19T14:30:07.939Z</time>
      </trkpt>
      <trkpt lat="44.22099" lon="0.72614">
        <ele>180.8</ele>
        <time>2022-11-19T14:30:17.939Z</time>
      </trkpt>
      <trkpt lat="44.22099" lon="0.72592">
        <ele>180</ele>
        <time>2022-11-19T14:30:31.939Z</time>
      </trkpt>
      <trkpt lat="44.221" lon="0.72589">
        <ele>180</ele>
        <time>2022-11-19T14:30:33.939Z</time>
      </trkpt>
      <trkpt lat="44.22093" lon="0.72579">
        <ele>178.9</ele>
        <time>2022-11-19T14:30:45.939Z</time>
      </trkpt>
      <trkpt lat="44.22089" lon="0.72576">
        <ele>178.3</ele>
        <time>2022-11-19T14:30:51.939Z</time>
      </trkpt>
      <trkpt lat="44.22081" lon="0.72559">
        <ele>176.8</ele>
        <time>2022-11-19T14:31:03.939Z</time>
      </trkpt>
      <trkpt lat="44.22071" lon="0.72547">
        <ele>175.1</ele>
        <time>2022-11-19T14:31:19.939Z</time>
      </trkpt>
      <trkpt lat="44.22063" lon="0.72539">
        <ele>173.8</ele>
        <time>2022-11-19T14:31:27.939Z</time>
      </trkpt>
      <trkpt lat="44.22061" lon="0.72539">
        <ele>173.4</ele>
        <time>2022-11-19T14:31:29.939Z</time>
      </trkpt>
      <trkpt lat="44.22054" lon="0.7253">
        <ele>172</ele>
        <time>2022-11-19T14:31:37.939Z</time>
      </trkpt>
      <trkpt lat="44.2205" lon="0.72528">
        <ele>171.6</ele>
        <time>2022-11-19T14:31:41.939Z</time>
      </trkpt>
      <trkpt lat="44.22046" lon="0.72523">
        <ele>171.1</ele>
        <time>2022-11-19T14:31:45.939Z</time>
      </trkpt>
      <trkpt lat="44.22035" lon="0.72513">
        <ele>169.6</ele>
        <time>2022-11-19T14:31:53.939Z</time>
      </trkpt>
      <trkpt lat="44.22031" lon="0.72511">
        <ele>169.1</ele>
        <time>2022-11-19T14:31:57.939Z</time>
      </trkpt>
      <trkpt lat="44.22026" lon="0.72512">
        <ele>168.7</ele>
        <time>2022-11-19T14:32:01.939Z</time>
      </trkpt>
      <trkpt lat="44.22026" lon="0.72516">
        <ele>168.9</ele>
        <time>2022-11-19T14:32:04.939Z</time>
      </trkpt>
      <trkpt lat="44.22026" lon="0.72519">
        <ele>169.2</ele>
        <time>2022-11-19T14:32:07.939Z</time>
      </trkpt>
      <trkpt lat="44.22023" lon="0.7253">
        <ele>169.6</ele>
        <time>2022-11-19T14:32:17.939Z</time>
      </trkpt>
      <trkpt lat="44.2202" lon="0.72535">
        <ele>169.4</ele>
        <time>2022-11-19T14:32:21.939Z</time>
      </trkpt>
      <trkpt lat="44.22019" lon="0.72546">
        <ele>169.7</ele>
        <time>2022-11-19T14:32:27.939Z</time>
      </trkpt>
      <trkpt lat="44.22016" lon="0.72553">
        <ele>169.7</ele>
        <time>2022-11-19T14:32:31.939Z</time>
      </trkpt>
      <trkpt lat="44.22017" lon="0.72556">
        <ele>169.8</ele>
        <time>2022-11-19T14:32:33.939Z</time>
      </trkpt>
      <trkpt lat="44.22011" lon="0.7258">
        <ele>169.5</ele>
        <time>2022-11-19T14:32:49.939Z</time>
      </trkpt>
      <trkpt lat="44.22009" lon="0.72597">
        <ele>170.1</ele>
        <time>2022-11-19T14:33:01.939Z</time>
      </trkpt>
      <trkpt lat="44.22007" lon="0.72602">
        <ele>170.1</ele>
        <time>2022-11-19T14:33:05.939Z</time>
      </trkpt>
      <trkpt lat="44.22003" lon="0.72604">
        <ele>169.8</ele>
        <time>2022-11-19T14:33:09.939Z</time>
      </trkpt>
      <trkpt lat="44.21996" lon="0.72602">
        <ele>169.1</ele>
        <time>2022-11-19T14:33:17.939Z</time>
      </trkpt>
      <trkpt lat="44.21987" lon="0.72602">
        <ele>168.6</ele>
        <time>2022-11-19T14:33:23.939Z</time>
      </trkpt>
      <trkpt lat="44.21983" lon="0.726">
        <ele>168.1</ele>
        <time>2022-11-19T14:33:27.939Z</time>
      </trkpt>
      <trkpt lat="44.21981" lon="0.72597">
        <ele>167.6</ele>
        <time>2022-11-19T14:33:31.939Z</time>
      </trkpt>
      <trkpt lat="44.21973" lon="0.72596">
        <ele>166.8</ele>
        <time>2022-11-19T14:33:39.939Z</time>
      </trkpt>
      <trkpt lat="44.21961" lon="0.72589">
        <ele>165.3</ele>
        <time>2022-11-19T14:33:51.939Z</time>
      </trkpt>
      <trkpt lat="44.21943" lon="0.72588">
        <ele>164.4</ele>
        <time>2022-11-19T14:34:07.939Z</time>
      </trkpt>
      <trkpt lat="44.21931" lon="0.72588">
        <ele>164</ele>
        <time>2022-11-19T14:34:19.939Z</time>
      </trkpt>
      <trkpt lat="44.21927" lon="0.72585">
        <ele>163.5</ele>
        <time>2022-11-19T14:34:23.939Z</time>
      </trkpt>
      <trkpt lat="44.21925" lon="0.72585">
        <ele>163.4</ele>
        <time>2022-11-19T14:34:25.939Z</time>
      </trkpt>
      <trkpt lat="44.21921" lon="0.72582">
        <ele>163</ele>
        <time>2022-11-19T14:34:29.939Z</time>
      </trkpt>
      <trkpt lat="44.21906" lon="0.72577">
        <ele>162.9</ele>
        <time>2022-11-19T14:34:39.939Z</time>
      </trkpt>
      <trkpt lat="44.21898" lon="0.7257">
        <ele>162.7</ele>
        <time>2022-11-19T14:34:47.939Z</time>
      </trkpt>
      <trkpt lat="44.21893" lon="0.72567">
        <ele>162.7</ele>
        <time>2022-11-19T14:34:51.939Z</time>
      </trkpt>
      <trkpt lat="44.21888" lon="0.72567">
        <ele>162.8</ele>
        <time>2022-11-19T14:34:57.939Z</time>
      </trkpt>
      <trkpt lat="44.21886" lon="0.72565">
        <ele>162.8</ele>
        <time>2022-11-19T14:35:00.939Z</time>
      </trkpt>
      <trkpt lat="44.2188" lon="0.72566">
        <ele>163.1</ele>
        <time>2022-11-19T14:35:04.939Z</time>
      </trkpt>
      <trkpt lat="44.21875" lon="0.72566">
        <ele>163.2</ele>
        <time>2022-11-19T14:35:08.939Z</time>
      </trkpt>
      <trkpt lat="44.2187" lon="0.72567">
        <ele>163.5</ele>
        <time>2022-11-19T14:35:16.939Z</time>
      </trkpt>
      <trkpt lat="44.21866" lon="0.72566">
        <ele>163.6</ele>
        <time>2022-11-19T14:35:20.939Z</time>
      </trkpt>
      <trkpt lat="44.21858" lon="0.72565">
        <ele>163.7</ele>
        <time>2022-11-19T14:35:28.939Z</time>
      </trkpt>
      <trkpt lat="44.21849" lon="0.72563">
        <ele>163.7</ele>
        <time>2022-11-19T14:35:36.939Z</time>
      </trkpt>
      <trkpt lat="44.21846" lon="0.7256">
        <ele>163.7</ele>
        <time>2022-11-19T14:35:40.939Z</time>
      </trkpt>
      <trkpt lat="44.2185" lon="0.72551">
        <ele>163.2</ele>
        <time>2022-11-19T14:37:47.676Z</time>
      </trkpt>
      <trkpt lat="44.2185" lon="0.72546">
        <ele>163</ele>
        <time>2022-11-19T14:38:05.676Z</time>
      </trkpt>
      <trkpt lat="44.21853" lon="0.7251">
        <ele>161.2</ele>
        <time>2022-11-19T14:38:29.676Z</time>
      </trkpt>
      <trkpt lat="44.21854" lon="0.72484">
        <ele>160.4</ele>
        <time>2022-11-19T14:38:45.676Z</time>
      </trkpt>
      <trkpt lat="44.21853" lon="0.72431">
        <ele>159.1</ele>
        <time>2022-11-19T14:39:17.676Z</time>
      </trkpt>
      <trkpt lat="44.21851" lon="0.72416">
        <ele>159</ele>
        <time>2022-11-19T14:39:25.676Z</time>
      </trkpt>
      <trkpt lat="44.21851" lon="0.72389">
        <ele>159.6</ele>
        <time>2022-11-19T14:39:41.676Z</time>
      </trkpt>
      <trkpt lat="44.21848" lon="0.72336">
        <ele>160</ele>
        <time>2022-11-19T14:40:13.676Z</time>
      </trkpt>
      <trkpt lat="44.21844" lon="0.72294">
        <ele>160.8</ele>
        <time>2022-11-19T14:40:41.676Z</time>
      </trkpt>
      <trkpt lat="44.21842" lon="0.72297">
        <ele>160.6</ele>
        <time>2022-11-19T14:43:22.688Z</time>
      </trkpt>
      <trkpt lat="44.21821" lon="0.72317">
        <ele>159.2</ele>
        <time>2022-11-19T14:43:46.688Z</time>
      </trkpt>
      <trkpt lat="44.21812" lon="0.72328">
        <ele>158</ele>
        <time>2022-11-19T14:43:54.688Z</time>
      </trkpt>
      <trkpt lat="44.21806" lon="0.72333">
        <ele>157.1</ele>
        <time>2022-11-19T14:43:58.688Z</time>
      </trkpt>
      <trkpt lat="44.21769" lon="0.72373">
        <ele>154.9</ele>
        <time>2022-11-19T14:44:38.688Z</time>
      </trkpt>
      <trkpt lat="44.21765" lon="0.72378">
        <ele>155.1</ele>
        <time>2022-11-19T14:44:42.688Z</time>
      </trkpt>
      <trkpt lat="44.21754" lon="0.72403">
        <ele>157</ele>
        <time>2022-11-19T14:44:58.688Z</time>
      </trkpt>
      <trkpt lat="44.21747" lon="0.72415">
        <ele>157.9</ele>
        <time>2022-11-19T14:45:06.688Z</time>
      </trkpt>
      <trkpt lat="44.21733" lon="0.72434">
        <ele>158.6</ele>
        <time>2022-11-19T14:45:22.688Z</time>
      </trkpt>
      <trkpt lat="44.21725" lon="0.72443">
        <ele>159</ele>
        <time>2022-11-19T14:45:30.688Z</time>
      </trkpt>
      <trkpt lat="44.21721" lon="0.72447">
        <ele>159.1</ele>
        <time>2022-11-19T14:45:34.688Z</time>
      </trkpt>
      <trkpt lat="44.21713" lon="0.72456">
        <ele>159.4</ele>
        <time>2022-11-19T14:45:42.688Z</time>
      </trkpt>
      <trkpt lat="44.21696" lon="0.72472">
        <ele>160</ele>
        <time>2022-11-19T14:45:58.688Z</time>
      </trkpt>
      <trkpt lat="44.21637" lon="0.72535">
        <ele>159.1</ele>
        <time>2022-11-19T14:46:54.688Z</time>
      </trkpt>
      <trkpt lat="44.21621" lon="0.72554">
        <ele>159.3</ele>
        <time>2022-11-19T14:47:10.688Z</time>
      </trkpt>
      <trkpt lat="44.21616" lon="0.72562">
        <ele>159.4</ele>
        <time>2022-11-19T14:47:18.688Z</time>
      </trkpt>
      <trkpt lat="44.21599" lon="0.72582">
        <ele>159.5</ele>
        <time>2022-11-19T14:48:07.592Z</time>
      </trkpt>
      <trkpt lat="44.2159" lon="0.72594">
        <ele>159.6</ele>
        <time>2022-11-19T14:48:15.592Z</time>
      </trkpt>
      <trkpt lat="44.21572" lon="0.72609">
        <ele>159.9</ele>
        <time>2022-11-19T14:48:31.592Z</time>
      </trkpt>
      <trkpt lat="44.21559" lon="0.72618">
        <ele>160.2</ele>
        <time>2022-11-19T14:48:43.592Z</time>
      </trkpt>
      <trkpt lat="44.21542" lon="0.72632">
        <ele>160.9</ele>
        <time>2022-11-19T14:48:59.592Z</time>
      </trkpt>
      <trkpt lat="44.2153" lon="0.7264">
        <ele>161</ele>
        <time>2022-11-19T14:49:09.592Z</time>
      </trkpt>
      <trkpt lat="44.21526" lon="0.72639">
        <ele>161.1</ele>
        <time>2022-11-19T14:49:13.592Z</time>
      </trkpt>
      <trkpt lat="44.21523" lon="0.72641">
        <ele>161.1</ele>
        <time>2022-11-19T14:49:17.592Z</time>
      </trkpt>
      <trkpt lat="44.21514" lon="0.72646">
        <ele>161.3</ele>
        <time>2022-11-19T14:49:25.592Z</time>
      </trkpt>
      <trkpt lat="44.21505" lon="0.72647">
        <ele>161.5</ele>
        <time>2022-11-19T14:49:33.592Z</time>
      </trkpt>
      <trkpt lat="44.21502" lon="0.72645">
        <ele>161.7</ele>
        <time>2022-11-19T14:49:37.592Z</time>
      </trkpt>
      <trkpt lat="44.21469" lon="0.72594">
        <ele>162.2</ele>
        <time>2022-11-19T14:50:17.592Z</time>
      </trkpt>
      <trkpt lat="44.21462" lon="0.72584">
        <ele>162.4</ele>
        <time>2022-11-19T14:50:25.592Z</time>
      </trkpt>
      <trkpt lat="44.21455" lon="0.72574">
        <ele>162.5</ele>
        <time>2022-11-19T14:50:33.592Z</time>
      </trkpt>
      <trkpt lat="44.21441" lon="0.72555">
        <ele>163.4</ele>
        <time>2022-11-19T14:50:49.592Z</time>
      </trkpt>
      <trkpt lat="44.21422" lon="0.72527">
        <ele>166.2</ele>
        <time>2022-11-19T14:51:13.592Z</time>
      </trkpt>
      <trkpt lat="44.21417" lon="0.72517">
        <ele>167</ele>
        <time>2022-11-19T14:51:21.592Z</time>
      </trkpt>
      <trkpt lat="44.21401" lon="0.72496">
        <ele>166.7</ele>
        <time>2022-11-19T14:51:41.592Z</time>
      </trkpt>
      <trkpt lat="44.21394" lon="0.72489">
        <ele>166.2</ele>
        <time>2022-11-19T14:51:49.592Z</time>
      </trkpt>
      <trkpt lat="44.21386" lon="0.72484">
        <ele>165.8</ele>
        <time>2022-11-19T14:51:57.592Z</time>
      </trkpt>
      <trkpt lat="44.21359" lon="0.72464">
        <ele>164.4</ele>
        <time>2022-11-19T14:52:21.592Z</time>
      </trkpt>
      <trkpt lat="44.21317" lon="0.72429">
        <ele>164</ele>
        <time>2022-11-19T14:53:01.592Z</time>
      </trkpt>
      <trkpt lat="44.21311" lon="0.72422">
        <ele>164</ele>
        <time>2022-11-19T14:53:09.592Z</time>
      </trkpt>
      <trkpt lat="44.21301" lon="0.72413">
        <ele>164</ele>
        <time>2022-11-19T14:53:21.591Z</time>
      </trkpt>
      <trkpt lat="44.21295" lon="0.7241">
        <ele>163.9</ele>
        <time>2022-11-19T14:53:25.592Z</time>
      </trkpt>
      <trkpt lat="44.21292" lon="0.72406">
        <ele>163.8</ele>
        <time>2022-11-19T14:53:29.592Z</time>
      </trkpt>
      <trkpt lat="44.21286" lon="0.72419">
        <ele>164.1</ele>
        <time>2022-11-19T14:57:35.958Z</time>
      </trkpt>
      <trkpt lat="44.2128" lon="0.7243">
        <ele>164.9</ele>
        <time>2022-11-19T14:57:43.958Z</time>
      </trkpt>
      <trkpt lat="44.21278" lon="0.72439">
        <ele>165.6</ele>
        <time>2022-11-19T14:57:49.958Z</time>
      </trkpt>
      <trkpt lat="44.2127" lon="0.72463">
        <ele>166.3</ele>
        <time>2022-11-19T14:58:05.958Z</time>
      </trkpt>
      <trkpt lat="44.21263" lon="0.72483">
        <ele>166.5</ele>
        <time>2022-11-19T14:58:19.958Z</time>
      </trkpt>
      <trkpt lat="44.21265" lon="0.72495">
        <ele>166.6</ele>
        <time>2022-11-19T14:58:27.958Z</time>
      </trkpt>
      <trkpt lat="44.21265" lon="0.72502">
        <ele>166.6</ele>
        <time>2022-11-19T14:58:31.959Z</time>
      </trkpt>
      <trkpt lat="44.21259" lon="0.7253">
        <ele>167</ele>
        <time>2022-11-19T14:58:47.958Z</time>
      </trkpt>
      <trkpt lat="44.21258" lon="0.72543">
        <ele>167</ele>
        <time>2022-11-19T14:58:55.958Z</time>
      </trkpt>
      <trkpt lat="44.21254" lon="0.72563">
        <ele>166.8</ele>
        <time>2022-11-19T14:59:07.958Z</time>
      </trkpt>
      <trkpt lat="44.21255" lon="0.72569">
        <ele>166.6</ele>
        <time>2022-11-19T14:59:11.958Z</time>
      </trkpt>
      <trkpt lat="44.21256" lon="0.72575">
        <ele>166.5</ele>
        <time>2022-11-19T14:59:15.958Z</time>
      </trkpt>
      <trkpt lat="44.21255" lon="0.72581">
        <ele>166.2</ele>
        <time>2022-11-19T14:59:19.958Z</time>
      </trkpt>
      <trkpt lat="44.21254" lon="0.72583">
        <ele>166.1</ele>
        <time>2022-11-19T14:59:21.958Z</time>
      </trkpt>
      <trkpt lat="44.2123" lon="0.72588">
        <ele>165.8</ele>
        <time>2022-11-19T14:59:41.958Z</time>
      </trkpt>
      <trkpt lat="44.21209" lon="0.72588">
        <ele>165.4</ele>
        <time>2022-11-19T14:59:57.958Z</time>
      </trkpt>
      <trkpt lat="44.2119" lon="0.72585">
        <ele>165</ele>
        <time>2022-11-19T15:00:13.958Z</time>
      </trkpt>
      <trkpt lat="44.21181" lon="0.72582">
        <ele>165</ele>
        <time>2022-11-19T15:00:21.958Z</time>
      </trkpt>
      <trkpt lat="44.21157" lon="0.72576">
        <ele>164.7</ele>
        <time>2022-11-19T15:00:41.958Z</time>
      </trkpt>
      <trkpt lat="44.21147" lon="0.72577">
        <ele>164.8</ele>
        <time>2022-11-19T15:00:49.958Z</time>
      </trkpt>
      <trkpt lat="44.21128" lon="0.72581">
        <ele>164.9</ele>
        <time>2022-11-19T15:01:05.958Z</time>
      </trkpt>
      <trkpt lat="44.2112" lon="0.72587">
        <ele>165.2</ele>
        <time>2022-11-19T15:01:13.958Z</time>
      </trkpt>
      <trkpt lat="44.21112" lon="0.72591">
        <ele>165.5</ele>
        <time>2022-11-19T15:01:21.958Z</time>
      </trkpt>
      <trkpt lat="44.21104" lon="0.72596">
        <ele>165.9</ele>
        <time>2022-11-19T15:01:29.958Z</time>
      </trkpt>
      <trkpt lat="44.21098" lon="0.72602">
        <ele>166.3</ele>
        <time>2022-11-19T15:01:37.958Z</time>
      </trkpt>
      <trkpt lat="44.21072" lon="0.72638">
        <ele>167.2</ele>
        <time>2022-11-19T15:02:09.958Z</time>
      </trkpt>
      <trkpt lat="44.21066" lon="0.72648">
        <ele>166.9</ele>
        <time>2022-11-19T15:02:17.958Z</time>
      </trkpt>
      <trkpt lat="44.21065" lon="0.72653">
        <ele>166.8</ele>
        <time>2022-11-19T15:02:21.958Z</time>
      </trkpt>
      <trkpt lat="44.21039" lon="0.72695">
        <ele>166.4</ele>
        <time>2022-11-19T15:02:53.958Z</time>
      </trkpt>
      <trkpt lat="44.21036" lon="0.72699">
        <ele>166.2</ele>
        <time>2022-11-19T15:02:57.958Z</time>
      </trkpt>
      <trkpt lat="44.21031" lon="0.72702">
        <ele>166.1</ele>
        <time>2022-11-19T15:03:01.958Z</time>
      </trkpt>
      <trkpt lat="44.21026" lon="0.72701">
        <ele>165.9</ele>
        <time>2022-11-19T15:03:05.959Z</time>
      </trkpt>
      <trkpt lat="44.21007" lon="0.72681">
        <ele>164</ele>
        <time>2022-11-19T15:03:25.958Z</time>
      </trkpt>
      <trkpt lat="44.20974" lon="0.72652">
        <ele>161.6</ele>
        <time>2022-11-19T15:03:57.958Z</time>
      </trkpt>
      <trkpt lat="44.20946" lon="0.72629">
        <ele>159.7</ele>
        <time>2022-11-19T15:04:25.958Z</time>
      </trkpt>
      <trkpt lat="44.20942" lon="0.72627">
        <ele>159.5</ele>
        <time>2022-11-19T15:04:29.958Z</time>
      </trkpt>
      <trkpt lat="44.20926" lon="0.72614">
        <ele>158.4</ele>
        <time>2022-11-19T15:04:45.958Z</time>
      </trkpt>
      <trkpt lat="44.20896" lon="0.72594">
        <ele>155.8</ele>
        <time>2022-11-19T15:05:13.958Z</time>
      </trkpt>
      <trkpt lat="44.20892" lon="0.72593">
        <ele>155.6</ele>
        <time>2022-11-19T15:05:17.958Z</time>
      </trkpt>
      <trkpt lat="44.20888" lon="0.72595">
        <ele>155.2</ele>
        <time>2022-11-19T15:05:34.894Z</time>
      </trkpt>
      <trkpt lat="44.20886" lon="0.72599">
        <ele>154.9</ele>
        <time>2022-11-19T15:07:38.202Z</time>
      </trkpt>
      <trkpt lat="44.20885" lon="0.72602">
        <ele>154.8</ele>
        <time>2022-11-19T15:08:58.700Z</time>
      </trkpt>
      <trkpt lat="44.20883" lon="0.72612">
        <ele>155.4</ele>
        <time>2022-11-19T15:09:06.700Z</time>
      </trkpt>
      <trkpt lat="44.20877" lon="0.72655">
        <ele>156.3</ele>
        <time>2022-11-19T15:09:34.700Z</time>
      </trkpt>
      <trkpt lat="44.20862" lon="0.72718">
        <ele>157</ele>
        <time>2022-11-19T15:10:14.700Z</time>
      </trkpt>
      <trkpt lat="44.20857" lon="0.72745">
        <ele>157.5</ele>
        <time>2022-11-19T15:10:30.700Z</time>
      </trkpt>
      <trkpt lat="44.2085" lon="0.72768">
        <ele>157.8</ele>
        <time>2022-11-19T15:10:46.700Z</time>
      </trkpt>
      <trkpt lat="44.20835" lon="0.72793">
        <ele>157.7</ele>
        <time>2022-11-19T15:11:06.700Z</time>
      </trkpt>
      <trkpt lat="44.20832" lon="0.72796">
        <ele>157.5</ele>
        <time>2022-11-19T15:11:10.700Z</time>
      </trkpt>
      <trkpt lat="44.20827" lon="0.72806">
        <ele>157.3</ele>
        <time>2022-11-19T15:11:18.700Z</time>
      </trkpt>
      <trkpt lat="44.20794" lon="0.72854">
        <ele>155.9</ele>
        <time>2022-11-19T15:11:58.699Z</time>
      </trkpt>
      <trkpt lat="44.20774" lon="0.72886">
        <ele>154.8</ele>
        <time>2022-11-19T15:12:22.700Z</time>
      </trkpt>
      <trkpt lat="44.20765" lon="0.72907">
        <ele>154.2</ele>
        <time>2022-11-19T15:12:38.700Z</time>
      </trkpt>
      <trkpt lat="44.20757" lon="0.72932">
        <ele>152.8</ele>
        <time>2022-11-19T15:12:58.700Z</time>
      </trkpt>
      <trkpt lat="44.20755" lon="0.72943">
        <ele>152.2</ele>
        <time>2022-11-19T15:13:06.700Z</time>
      </trkpt>
      <trkpt lat="44.20752" lon="0.72949">
        <ele>151.8</ele>
        <time>2022-11-19T15:13:14.700Z</time>
      </trkpt>
      <trkpt lat="44.20755" lon="0.72951">
        <ele>151.7</ele>
        <time>2022-11-19T15:13:22.700Z</time>
      </trkpt>
      <trkpt lat="44.20763" lon="0.72968">
        <ele>151.2</ele>
        <time>2022-11-19T15:13:38.700Z</time>
      </trkpt>
      <trkpt lat="44.20766" lon="0.72976">
        <ele>150.5</ele>
        <time>2022-11-19T15:13:46.700Z</time>
      </trkpt>
      <trkpt lat="44.20776" lon="0.72989">
        <ele>149.4</ele>
        <time>2022-11-19T15:13:56.700Z</time>
      </trkpt>
      <trkpt lat="44.20777" lon="0.72992">
        <ele>149</ele>
        <time>2022-11-19T15:13:58.700Z</time>
      </trkpt>
      <trkpt lat="44.20781" lon="0.72999">
        <ele>148.4</ele>
        <time>2022-11-19T15:14:02.700Z</time>
      </trkpt>
      <trkpt lat="44.20784" lon="0.73005">
        <ele>147.3</ele>
        <time>2022-11-19T15:14:06.700Z</time>
      </trkpt>
      <trkpt lat="44.20793" lon="0.73013">
        <ele>145.8</ele>
        <time>2022-11-19T15:14:14.700Z</time>
      </trkpt>
      <trkpt lat="44.20798" lon="0.73014">
        <ele>145.9</ele>
        <time>2022-11-19T15:14:18.700Z</time>
      </trkpt>
      <trkpt lat="44.20803" lon="0.73016">
        <ele>145.7</ele>
        <time>2022-11-19T15:14:22.700Z</time>
      </trkpt>
      <trkpt lat="44.20822" lon="0.73021">
        <ele>146.2</ele>
        <time>2022-11-19T15:14:38.700Z</time>
      </trkpt>
      <trkpt lat="44.20828" lon="0.73025">
        <ele>146.1</ele>
        <time>2022-11-19T15:14:42.700Z</time>
      </trkpt>
      <trkpt lat="44.20832" lon="0.7303">
        <ele>145.2</ele>
        <time>2022-11-19T15:14:50.700Z</time>
      </trkpt>
      <trkpt lat="44.20837" lon="0.73032">
        <ele>145.1</ele>
        <time>2022-11-19T15:14:54.700Z</time>
      </trkpt>
      <trkpt lat="44.20843" lon="0.73039">
        <ele>144.3</ele>
        <time>2022-11-19T15:15:02.700Z</time>
      </trkpt>
      <trkpt lat="44.20847" lon="0.73048">
        <ele>142.8</ele>
        <time>2022-11-19T15:15:08.700Z</time>
      </trkpt>
      <trkpt lat="44.20853" lon="0.73052">
        <ele>143.3</ele>
        <time>2022-11-19T15:15:12.700Z</time>
      </trkpt>
      <trkpt lat="44.20861" lon="0.73066">
        <ele>142.2</ele>
        <time>2022-11-19T15:15:24.700Z</time>
      </trkpt>
      <trkpt lat="44.20862" lon="0.73073">
        <ele>141.2</ele>
        <time>2022-11-19T15:15:28.700Z</time>
      </trkpt>
      <trkpt lat="44.20866" lon="0.73101">
        <ele>138.2</ele>
        <time>2022-11-19T15:15:48.700Z</time>
      </trkpt>
      <trkpt lat="44.20871" lon="0.73112">
        <ele>138</ele>
        <time>2022-11-19T15:15:54.700Z</time>
      </trkpt>
      <trkpt lat="44.2087" lon="0.73118">
        <ele>137.3</ele>
        <time>2022-11-19T15:15:58.700Z</time>
      </trkpt>
      <trkpt lat="44.20872" lon="0.73129">
        <ele>136.2</ele>
        <time>2022-11-19T15:16:06.700Z</time>
      </trkpt>
      <trkpt lat="44.20875" lon="0.73135">
        <ele>135.6</ele>
        <time>2022-11-19T15:16:10.700Z</time>
      </trkpt>
      <trkpt lat="44.20876" lon="0.73141">
        <ele>134.8</ele>
        <time>2022-11-19T15:16:14.700Z</time>
      </trkpt>
      <trkpt lat="44.20875" lon="0.73154">
        <ele>133.6</ele>
        <time>2022-11-19T15:16:22.700Z</time>
      </trkpt>
      <trkpt lat="44.20876" lon="0.7316">
        <ele>133.1</ele>
        <time>2022-11-19T15:16:26.700Z</time>
      </trkpt>
      <trkpt lat="44.20878" lon="0.73167">
        <ele>132.4</ele>
        <time>2022-11-19T15:16:30.700Z</time>
      </trkpt>
      <trkpt lat="44.20879" lon="0.73172">
        <ele>131.8</ele>
        <time>2022-11-19T15:16:34.699Z</time>
      </trkpt>
      <trkpt lat="44.2088" lon="0.73177">
        <ele>131.2</ele>
        <time>2022-11-19T15:16:58.613Z</time>
      </trkpt>
      <trkpt lat="44.2088" lon="0.73184">
        <ele>130.4</ele>
        <time>2022-11-19T15:17:02.613Z</time>
      </trkpt>
      <trkpt lat="44.20883" lon="0.73191">
        <ele>129.6</ele>
        <time>2022-11-19T15:17:06.613Z</time>
      </trkpt>
      <trkpt lat="44.2088" lon="0.73213">
        <ele>128</ele>
        <time>2022-11-19T15:17:18.613Z</time>
      </trkpt>
      <trkpt lat="44.2088" lon="0.73228">
        <ele>126.9</ele>
        <time>2022-11-19T15:17:26.613Z</time>
      </trkpt>
      <trkpt lat="44.20877" lon="0.73278">
        <ele>124</ele>
        <time>2022-11-19T15:17:58.613Z</time>
      </trkpt>
      <trkpt lat="44.20877" lon="0.73291">
        <ele>122.5</ele>
        <time>2022-11-19T15:18:06.613Z</time>
      </trkpt>
      <trkpt lat="44.20875" lon="0.73298">
        <ele>121.9</ele>
        <time>2022-11-19T15:18:10.613Z</time>
      </trkpt>
      <trkpt lat="44.20867" lon="0.73372">
        <ele>116.4</ele>
        <time>2022-11-19T15:18:58.613Z</time>
      </trkpt>
      <trkpt lat="44.2086" lon="0.73402">
        <ele>115</ele>
        <time>2022-11-19T15:19:14.613Z</time>
      </trkpt>
      <trkpt lat="44.20852" lon="0.73427">
        <ele>112.8</ele>
        <time>2022-11-19T15:19:30.613Z</time>
      </trkpt>
      <trkpt lat="44.20842" lon="0.7347">
        <ele>107.6</ele>
        <time>2022-11-19T15:20:02.613Z</time>
      </trkpt>
      <trkpt lat="44.20831" lon="0.73491">
        <ele>104.8</ele>
        <time>2022-11-19T15:20:18.613Z</time>
      </trkpt>
      <trkpt lat="44.20829" lon="0.73493">
        <ele>104.4</ele>
        <time>2022-11-19T15:20:20.613Z</time>
      </trkpt>
      <trkpt lat="44.20825" lon="0.73495">
        <ele>103.8</ele>
        <time>2022-11-19T15:20:24.613Z</time>
      </trkpt>
      <trkpt lat="44.20808" lon="0.735">
        <ele>102.2</ele>
        <time>2022-11-19T15:20:40.613Z</time>
      </trkpt>
      <trkpt lat="44.20805" lon="0.735">
        <ele>101.9</ele>
        <time>2022-11-19T15:20:44.613Z</time>
      </trkpt>
      <trkpt lat="44.20801" lon="0.73503">
        <ele>100.9</ele>
        <time>2022-11-19T15:20:48.613Z</time>
      </trkpt>
      <trkpt lat="44.20796" lon="0.73504">
        <ele>100.2</ele>
        <time>2022-11-19T15:20:53.613Z</time>
      </trkpt>
      <trkpt lat="44.20792" lon="0.73508">
        <ele>99.2</ele>
        <time>2022-11-19T15:21:01.613Z</time>
      </trkpt>
      <trkpt lat="44.20791" lon="0.73513">
        <ele>98.5</ele>
        <time>2022-11-19T15:21:05.613Z</time>
      </trkpt>
      <trkpt lat="44.20784" lon="0.73518">
        <ele>97.4</ele>
        <time>2022-11-19T15:21:11.613Z</time>
      </trkpt>
      <trkpt lat="44.20781" lon="0.73522">
        <ele>96.7</ele>
        <time>2022-11-19T15:21:15.613Z</time>
      </trkpt>
      <trkpt lat="44.20783" lon="0.73532">
        <ele>96</ele>
        <time>2022-11-19T15:22:42.431Z</time>
      </trkpt>
      <trkpt lat="44.20797" lon="0.73559">
        <ele>94.4</ele>
        <time>2022-11-19T15:23:08.909Z</time>
      </trkpt>
      <trkpt lat="44.20799" lon="0.7356">
        <ele>94.3</ele>
        <time>2022-11-19T15:23:12.910Z</time>
      </trkpt>
      <trkpt lat="44.20802" lon="0.73565">
        <ele>94</ele>
        <time>2022-11-19T15:23:16.910Z</time>
      </trkpt>
      <trkpt lat="44.20806" lon="0.73567">
        <ele>93.9</ele>
        <time>2022-11-19T15:23:20.910Z</time>
      </trkpt>
      <trkpt lat="44.20807" lon="0.73568">
        <ele>93.8</ele>
        <time>2022-11-19T15:23:22.910Z</time>
      </trkpt>
      <trkpt lat="44.20811" lon="0.73571">
        <ele>93.7</ele>
        <time>2022-11-19T15:23:26.910Z</time>
      </trkpt>
      <trkpt lat="44.20835" lon="0.73592">
        <ele>92.1</ele>
        <time>2022-11-19T15:23:50.910Z</time>
      </trkpt>
      <trkpt lat="44.20849" lon="0.73607">
        <ele>90.6</ele>
        <time>2022-11-19T15:24:06.910Z</time>
      </trkpt>
      <trkpt lat="44.20862" lon="0.73618">
        <ele>89.5</ele>
        <time>2022-11-19T15:24:18.910Z</time>
      </trkpt>
      <trkpt lat="44.20871" lon="0.73624">
        <ele>89.3</ele>
        <time>2022-11-19T15:24:26.910Z</time>
      </trkpt>
      <trkpt lat="44.20875" lon="0.73627">
        <ele>89.2</ele>
        <time>2022-11-19T15:24:30.910Z</time>
      </trkpt>
      <trkpt lat="44.20884" lon="0.73631">
        <ele>89.2</ele>
        <time>2022-11-19T15:24:38.910Z</time>
      </trkpt>
      <trkpt lat="44.20894" lon="0.73634">
        <ele>89.3</ele>
        <time>2022-11-19T15:24:48.910Z</time>
      </trkpt>
      <trkpt lat="44.20899" lon="0.73632">
        <ele>89.5</ele>
        <time>2022-11-19T15:24:52.910Z</time>
      </trkpt>
      <trkpt lat="44.2091" lon="0.73635">
        <ele>89.8</ele>
        <time>2022-11-19T15:25:00.910Z</time>
      </trkpt>
      <trkpt lat="44.20922" lon="0.73642">
        <ele>90.5</ele>
        <time>2022-11-19T15:25:12.910Z</time>
      </trkpt>
      <trkpt lat="44.20931" lon="0.73648">
        <ele>91.3</ele>
        <time>2022-11-19T15:25:20.910Z</time>
      </trkpt>
      <trkpt lat="44.20945" lon="0.73661">
        <ele>92.3</ele>
        <time>2022-11-19T15:25:36.910Z</time>
      </trkpt>
      <trkpt lat="44.20955" lon="0.73666">
        <ele>93.5</ele>
        <time>2022-11-19T15:25:48.910Z</time>
      </trkpt>
      <trkpt lat="44.20971" lon="0.73682">
        <ele>95.3</ele>
        <time>2022-11-19T15:26:04.910Z</time>
      </trkpt>
      <trkpt lat="44.20976" lon="0.73685">
        <ele>95.9</ele>
        <time>2022-11-19T15:26:08.910Z</time>
      </trkpt>
      <trkpt lat="44.20993" lon="0.73703">
        <ele>97.6</ele>
        <time>2022-11-19T15:26:28.910Z</time>
      </trkpt>
      <trkpt lat="44.20997" lon="0.73711">
        <ele>97.9</ele>
        <time>2022-11-19T15:26:40.910Z</time>
      </trkpt>
      <trkpt lat="44.21004" lon="0.73717">
        <ele>98.7</ele>
        <time>2022-11-19T15:26:48.910Z</time>
      </trkpt>
      <trkpt lat="44.21012" lon="0.73726">
        <ele>99.2</ele>
        <time>2022-11-19T15:26:56.910Z</time>
      </trkpt>
      <trkpt lat="44.21015" lon="0.73731">
        <ele>99.3</ele>
        <time>2022-11-19T15:27:00.910Z</time>
      </trkpt>
      <trkpt lat="44.21026" lon="0.73761">
        <ele>99.3</ele>
        <time>2022-11-19T15:27:20.910Z</time>
      </trkpt>
      <trkpt lat="44.21031" lon="0.7377">
        <ele>99.6</ele>
        <time>2022-11-19T15:27:28.910Z</time>
      </trkpt>
      <trkpt lat="44.21035" lon="0.73781">
        <ele>99.4</ele>
        <time>2022-11-19T15:27:36.910Z</time>
      </trkpt>
      <trkpt lat="44.21042" lon="0.73792">
        <ele>98.7</ele>
        <time>2022-11-19T15:27:44.910Z</time>
      </trkpt>
      <trkpt lat="44.21051" lon="0.73803">
        <ele>98.6</ele>
        <time>2022-11-19T15:27:54.910Z</time>
      </trkpt>
      <trkpt lat="44.21053" lon="0.73809">
        <ele>98.3</ele>
        <time>2022-11-19T15:27:58.910Z</time>
      </trkpt>
      <trkpt lat="44.21055" lon="0.73815">
        <ele>97.9</ele>
        <time>2022-11-19T15:28:06.910Z</time>
      </trkpt>
      <trkpt lat="44.21082" lon="0.73852">
        <ele>97.2</ele>
        <time>2022-11-19T15:28:38.910Z</time>
      </trkpt>
      <trkpt lat="44.21089" lon="0.73863">
        <ele>96.6</ele>
        <time>2022-11-19T15:28:46.910Z</time>
      </trkpt>
      <trkpt lat="44.21119" lon="0.73904">
        <ele>97.2</ele>
        <time>2022-11-19T15:29:18.910Z</time>
      </trkpt>
      <trkpt lat="44.21125" lon="0.73914">
        <ele>97.6</ele>
        <time>2022-11-19T15:29:26.910Z</time>
      </trkpt>
      <trkpt lat="44.21128" lon="0.73917">
        <ele>98</ele>
        <time>2022-11-19T15:29:30.910Z</time>
      </trkpt>
      <trkpt lat="44.21139" lon="0.73938">
        <ele>97.8</ele>
        <time>2022-11-19T15:29:46.910Z</time>
      </trkpt>
      <trkpt lat="44.21152" lon="0.73957">
        <ele>97.9</ele>
        <time>2022-11-19T15:30:02.910Z</time>
      </trkpt>
      <trkpt lat="44.21156" lon="0.73967">
        <ele>97.9</ele>
        <time>2022-11-19T15:30:10.910Z</time>
      </trkpt>
      <trkpt lat="44.21162" lon="0.73977">
        <ele>97.9</ele>
        <time>2022-11-19T15:30:18.910Z</time>
      </trkpt>
      <trkpt lat="44.21172" lon="0.74005">
        <ele>96.9</ele>
        <time>2022-11-19T15:30:38.910Z</time>
      </trkpt>
      <trkpt lat="44.21174" lon="0.74008">
        <ele>97.2</ele>
        <time>2022-11-19T15:30:46.365Z</time>
      </trkpt>
      <trkpt lat="44.21179" lon="0.74027">
        <ele>97.2</ele>
        <time>2022-11-19T15:30:58.365Z</time>
      </trkpt>
      <trkpt lat="44.2118" lon="0.74042">
        <ele>96.7</ele>
        <time>2022-11-19T15:31:06.365Z</time>
      </trkpt>
      <trkpt lat="44.2118" lon="0.74056">
        <ele>95.9</ele>
        <time>2022-11-19T15:31:14.365Z</time>
      </trkpt>
      <trkpt lat="44.21181" lon="0.74062">
        <ele>95.6</ele>
        <time>2022-11-19T15:31:18.365Z</time>
      </trkpt>
      <trkpt lat="44.21182" lon="0.74082">
        <ele>94.2</ele>
        <time>2022-11-19T15:31:30.365Z</time>
      </trkpt>
      <trkpt lat="44.21181" lon="0.74089">
        <ele>93.7</ele>
        <time>2022-11-19T15:31:34.365Z</time>
      </trkpt>
      <trkpt lat="44.21182" lon="0.74103">
        <ele>93</ele>
        <time>2022-11-19T15:31:42.365Z</time>
      </trkpt>
      <trkpt lat="44.21182" lon="0.7411">
        <ele>92.6</ele>
        <time>2022-11-19T15:31:46.365Z</time>
      </trkpt>
      <trkpt lat="44.21179" lon="0.74115">
        <ele>92.4</ele>
        <time>2022-11-19T15:31:50.365Z</time>
      </trkpt>
      <trkpt lat="44.21176" lon="0.74119">
        <ele>92.2</ele>
        <time>2022-11-19T15:31:54.365Z</time>
      </trkpt>
      <trkpt lat="44.21176" lon="0.74132">
        <ele>92.1</ele>
        <time>2022-11-19T15:32:02.365Z</time>
      </trkpt>
      <trkpt lat="44.21172" lon="0.74146">
        <ele>91.8</ele>
        <time>2022-11-19T15:32:10.365Z</time>
      </trkpt>
      <trkpt lat="44.21166" lon="0.74155">
        <ele>91.4</ele>
        <time>2022-11-19T15:32:18.365Z</time>
      </trkpt>
      <trkpt lat="44.21164" lon="0.74166">
        <ele>91</ele>
        <time>2022-11-19T15:32:26.365Z</time>
      </trkpt>
      <trkpt lat="44.21161" lon="0.74172">
        <ele>90.8</ele>
        <time>2022-11-19T15:32:30.365Z</time>
      </trkpt>
      <trkpt lat="44.21159" lon="0.74178">
        <ele>90.6</ele>
        <time>2022-11-19T15:32:34.365Z</time>
      </trkpt>
      <trkpt lat="44.21163" lon="0.74189">
        <ele>90.2</ele>
        <time>2022-11-19T15:32:42.365Z</time>
      </trkpt>
      <trkpt lat="44.21168" lon="0.742">
        <ele>90.1</ele>
        <time>2022-11-19T15:32:50.365Z</time>
      </trkpt>
      <trkpt lat="44.21175" lon="0.74219">
        <ele>90.3</ele>
        <time>2022-11-19T15:33:02.365Z</time>
      </trkpt>
      <trkpt lat="44.21177" lon="0.74232">
        <ele>90</ele>
        <time>2022-11-19T15:33:10.365Z</time>
      </trkpt>
      <trkpt lat="44.21177" lon="0.74246">
        <ele>89.5</ele>
        <time>2022-11-19T15:33:18.365Z</time>
      </trkpt>
      <trkpt lat="44.21176" lon="0.74259">
        <ele>89.3</ele>
        <time>2022-11-19T15:33:26.365Z</time>
      </trkpt>
      <trkpt lat="44.21174" lon="0.74272">
        <ele>89.3</ele>
        <time>2022-11-19T15:33:34.365Z</time>
      </trkpt>
      <trkpt lat="44.21172" lon="0.74299">
        <ele>89</ele>
        <time>2022-11-19T15:33:50.365Z</time>
      </trkpt>
      <trkpt lat="44.21173" lon="0.74325">
        <ele>89</ele>
        <time>2022-11-19T15:34:06.365Z</time>
      </trkpt>
      <trkpt lat="44.21175" lon="0.7434">
        <ele>89</ele>
        <time>2022-11-19T15:34:14.365Z</time>
      </trkpt>
      <trkpt lat="44.21187" lon="0.74389">
        <ele>88.7</ele>
        <time>2022-11-19T15:34:46.365Z</time>
      </trkpt>
      <trkpt lat="44.21189" lon="0.74397">
        <ele>88.9</ele>
        <time>2022-11-19T15:34:52.365Z</time>
      </trkpt>
      <trkpt lat="44.21197" lon="0.74399">
        <ele>89</ele>
        <time>2022-11-19T15:35:00.365Z</time>
      </trkpt>
      <trkpt lat="44.21207" lon="0.74395">
        <ele>89</ele>
        <time>2022-11-19T15:35:08.365Z</time>
      </trkpt>
      <trkpt lat="44.21212" lon="0.74396">
        <ele>89</ele>
        <time>2022-11-19T15:35:12.365Z</time>
      </trkpt>
      <trkpt lat="44.2122" lon="0.74403">
        <ele>89</ele>
        <time>2022-11-19T15:35:20.365Z</time>
      </trkpt>
      <trkpt lat="44.21228" lon="0.74401">
        <ele>89.1</ele>
        <time>2022-11-19T15:35:28.365Z</time>
      </trkpt>
      <trkpt lat="44.21232" lon="0.74401">
        <ele>89.2</ele>
        <time>2022-11-19T15:35:32.365Z</time>
      </trkpt>
      <trkpt lat="44.21237" lon="0.74404">
        <ele>89.2</ele>
        <time>2022-11-19T15:35:36.365Z</time>
      </trkpt>
      <trkpt lat="44.21239" lon="0.7441">
        <ele>89.2</ele>
        <time>2022-11-19T15:35:40.365Z</time>
      </trkpt>
      <trkpt lat="44.2124" lon="0.74415">
        <ele>89</ele>
        <time>2022-11-19T15:35:44.365Z</time>
      </trkpt>
      <trkpt lat="44.21248" lon="0.74417">
        <ele>89</ele>
        <time>2022-11-19T15:37:49.553Z</time>
      </trkpt>
      <trkpt lat="44.21256" lon="0.744">
        <ele>89.9</ele>
        <time>2022-11-19T15:43:51.925Z</time>
        <extensions>
          <visugpx:TrkExtension xmlns:visugpx="https://www.visugpx.com/editgpx/">
            <visugpx:node>1</visugpx:node>
            </visugpx:TrkExtension>
        </extensions>
      </trkpt>
    </trkseg>
  </trk>
</gpx>